Wetterdaten: Samstag, 27.10.2018
Datum Zeit Temp. Aussen Temp. o. S. +5cm Feuchte Auss Luftdruck Regen Sonnenschein Regendauer Solar Windben Empfang
27.10.2018 00:00 7,1 C 6,1 C 6,7 C 93 % 1004,3 hPa 0,0 l/m 0 min 0 min 0 W/m 3,2 km/h (1 Bft) 95,74 %
27.10.2018 00:02 7,1 C 5,6 C 6,7 C 93 % 1004,4 hPa 0,0 l/m 0 min 0 min 0 W/m 3,2 km/h (1 Bft) 97,06 %
27.10.2018 00:04 7,1 C 6,1 C 6,7 C 93 % 1004,3 hPa 0,0 l/m 0 min 0 min 0 W/m 3,2 km/h (1 Bft) 97,92 %
27.10.2018 00:08 7,1 C 5,6 C 6,7 C 93 % 1004,2 hPa 0,0 l/m 0 min 0 min 0 W/m 3,2 km/h (1 Bft) 97,87 %
27.10.2018 00:10 7,0 C 5,6 C 6,7 C 93 % 1004,2 hPa 0,0 l/m 0 min 0 min 0 W/m 3,2 km/h (1 Bft) 97,87 %
27.10.2018 00:12 7,0 C 5,6 C 6,7 C 93 % 1004,1 hPa 0,0 l/m 0 min 0 min 0 W/m 3,2 km/h (1 Bft) 93,62 %
27.10.2018 00:14 7,0 C 5,6 C 6,7 C 93 % 1004,2 hPa 0,0 l/m 0 min 0 min 0 W/m 9,7 km/h (2 Bft) 97,83 %
27.10.2018 00:16 6,9 C 5,6 C 6,7 C 93 % 1004,1 hPa 0,0 l/m 0 min 0 min 0 W/m 6,4 km/h (2 Bft) 95,74 %
27.10.2018 00:18 6,9 C 5,6 C 6,7 C 93 % 1004,1 hPa 0,0 l/m 0 min 0 min 0 W/m 6,4 km/h (2 Bft) 97,87 %
27.10.2018 00:20 6,9 C 5,6 C 6,7 C 93 % 1004,1 hPa 0,0 l/m 0 min 0 min 0 W/m 3,2 km/h (1 Bft) 95,74 %
27.10.2018 00:22 6,9 C 5,6 C 6,1 C 93 % 1004,1 hPa 0,0 l/m 0 min 0 min 0 W/m 6,4 km/h (2 Bft) 95,74 %
27.10.2018 00:24 6,9 C 5,6 C 6,1 C 93 % 1004,2 hPa 0,0 l/m 0 min 0 min 0 W/m 6,4 km/h (2 Bft) 97,87 %
27.10.2018 00:26 6,9 C 5,6 C 6,1 C 93 % 1004,1 hPa 0,0 l/m 0 min 0 min 0 W/m 3,2 km/h (1 Bft) 95,65 %
27.10.2018 00:28 6,8 C 5,6 C 6,1 C 93 % 1004,1 hPa 0,0 l/m 0 min 0 min 0 W/m 6,4 km/h (2 Bft) 95,74 %
27.10.2018 00:30 6,8 C 5,6 C 6,1 C 93 % 1004,1 hPa 0,0 l/m 0 min 0 min 0 W/m 6,4 km/h (2 Bft) 93,62 %
27.10.2018 00:32 6,8 C 5,6 C 6,1 C 93 % 1004,0 hPa 0,0 l/m 0 min 0 min 0 W/m 9,7 km/h (2 Bft) 93,62 %
27.10.2018 00:34 6,8 C 5,6 C 6,1 C 93 % 1004,1 hPa 0,0 l/m 0 min 0 min 0 W/m 6,4 km/h (2 Bft) 97,87 %
27.10.2018 00:38 6,8 C 5,6 C 6,1 C 93 % 1004,0 hPa 0,0 l/m 0 min 0 min 0 W/m 6,4 km/h (2 Bft) 96,77 %
27.10.2018 00:40 6,7 C 5,6 C 6,1 C 93 % 1004,1 hPa 0,0 l/m 0 min 0 min 0 W/m 3,2 km/h (1 Bft) 97,87 %
27.10.2018 00:42 6,7 C 5,6 C 6,1 C 93 % 1004,2 hPa 0,0 l/m 0 min 0 min 0 W/m 6,4 km/h (2 Bft) 97,87 %
27.10.2018 00:44 6,7 C 5,6 C 6,1 C 93 % 1004,1 hPa 0,0 l/m 0 min 0 min 0 W/m 9,7 km/h (2 Bft) 97,87 %
27.10.2018 00:46 6,7 C 5,6 C 6,1 C 93 % 1004,1 hPa 0,0 l/m 0 min 0 min 0 W/m 3,2 km/h (1 Bft) 95,74 %
27.10.2018 00:48 6,7 C 5,6 C 6,1 C 94 % 1004,2 hPa 0,0 l/m 0 min 0 min 0 W/m 6,4 km/h (2 Bft) 97,83 %
27.10.2018 00:50 6,7 C 5,6 C 6,1 C 94 % 1004,1 hPa 0,0 l/m 0 min 0 min 0 W/m 6,4 km/h (2 Bft) 95,74 %
27.10.2018 00:52 6,7 C 5,6 C 6,1 C 94 % 1004,2 hPa 0,0 l/m 0 min 0 min 0 W/m 9,7 km/h (2 Bft) 97,87 %
27.10.2018 00:54 6,7 C 5,6 C 6,1 C 94 % 1004,1 hPa 0,0 l/m 0 min 0 min 0 W/m 3,2 km/h (1 Bft) 97,87 %
27.10.2018 00:56 6,7 C 5,6 C 6,1 C 94 % 1004,2 hPa 0,0 l/m 0 min 0 min 0 W/m 9,7 km/h (2 Bft) 95,74 %
27.10.2018 00:58 6,6 C 5,6 C 6,1 C 94 % 1004,2 hPa 0,0 l/m 0 min 0 min 0 W/m 3,2 km/h (1 Bft) 97,87 %
27.10.2018 01:00 6,6 C 5,6 C 6,1 C 94 % 1004,2 hPa 0,0 l/m 0 min 0 min 0 W/m 0,0 km/h (0 Bft) 93,48 %
27.10.2018 01:02 6,6 C 5,6 C 6,1 C 94 % 1004,2 hPa 0,0 l/m 0 min 0 min 0 W/m 6,4 km/h (2 Bft) 97,87 %
27.10.2018 01:04 6,6 C 5,6 C 6,1 C 94 % 1004,2 hPa 0,0 l/m 0 min 0 min 0 W/m 9,7 km/h (2 Bft) 97,87 %
27.10.2018 01:08 6,5 C 5,6 C 6,1 C 94 % 1004,2 hPa 0,0 l/m 0 min 0 min 0 W/m 9,7 km/h (2 Bft) 97,87 %
27.10.2018 01:10 6,5 C 5,6 C 6,1 C 94 % 1004,3 hPa 0,0 l/m 0 min 0 min 0 W/m 6,4 km/h (2 Bft) 97,83 %
27.10.2018 01:12 6,5 C 5,6 C 6,1 C 94 % 1004,3 hPa 0,0 l/m 0 min 0 min 0 W/m 0,0 km/h (0 Bft) 97,87 %
27.10.2018 01:14 6,4 C 5,6 C 6,1 C 94 % 1004,3 hPa 0,0 l/m 0 min 0 min 0 W/m 3,2 km/h (1 Bft) 97,87 %
27.10.2018 01:16 6,4 C 5,6 C 6,1 C 94 % 1004,2 hPa 0,0 l/m 0 min 0 min 0 W/m 3,2 km/h (1 Bft) 100,00 %
27.10.2018 01:18 6,4 C 5,0 C 5,6 C 94 % 1004,2 hPa 0,0 l/m 0 min 0 min 0 W/m 3,2 km/h (1 Bft) 100,00 %
27.10.2018 01:20 6,4 C 5,0 C 5,6 C 94 % 1004,1 hPa 0,0 l/m 0 min 0 min 0 W/m 3,2 km/h (1 Bft) 97,87 %
27.10.2018 01:22 6,4 C 5,0 C 5,6 C 94 % 1004,2 hPa 0,0 l/m 0 min 0 min 0 W/m 3,2 km/h (1 Bft) 96,36 %
27.10.2018 01:24 6,4 C 5,0 C 5,6 C 94 % 1004,1 hPa 0,0 l/m 0 min 0 min 0 W/m 0,0 km/h (0 Bft) 96,00 %
27.10.2018 01:26 6,4 C 5,0 C 5,6 C 94 % 1004,1 hPa 0,0 l/m 0 min 0 min 0 W/m 0,0 km/h (0 Bft) 97,14 %
27.10.2018 01:28 6,3 C 5,0 C 5,6 C 94 % 1004,1 hPa 0,0 l/m 0 min 0 min 0 W/m 0,0 km/h (0 Bft) 95,74 %
27.10.2018 01:30 6,3 C 5,0 C 5,6 C 94 % 1004,3 hPa 0,0 l/m 0 min 0 min 0 W/m 9,7 km/h (2 Bft) 97,87 %
27.10.2018 01:32 6,3 C 5,6 C 5,6 C 94 % 1004,3 hPa 0,0 l/m 0 min 0 min 0 W/m 3,2 km/h (1 Bft) 94,83 %
27.10.2018 01:34 6,3 C 5,6 C 5,6 C 94 % 1004,3 hPa 0,0 l/m 0 min 0 min 0 W/m 3,2 km/h (1 Bft) 97,14 %
27.10.2018 01:38 6,3 C 5,6 C 6,1 C 94 % 1004,3 hPa 0,0 l/m 0 min 0 min 0 W/m 6,4 km/h (2 Bft) 97,87 %
27.10.2018 01:40 6,3 C 5,6 C 6,1 C 94 % 1004,3 hPa 0,0 l/m 0 min 0 min 0 W/m 3,2 km/h (1 Bft) 98,28 %
27.10.2018 01:42 6,3 C 5,6 C 6,1 C 94 % 1004,2 hPa 0,0 l/m 0 min 0 min 0 W/m 6,4 km/h (2 Bft) 97,22 %
27.10.2018 01:44 6,3 C 5,6 C 6,1 C 94 % 1004,3 hPa 0,0 l/m 0 min 0 min 0 W/m 3,2 km/h (1 Bft) 94,83 %
27.10.2018 01:46 6,3 C 5,6 C 6,1 C 94 % 1004,3 hPa 0,0 l/m 0 min 0 min 0 W/m 0,0 km/h (0 Bft) 94,29 %
27.10.2018 01:48 6,2 C 5,6 C 6,1 C 94 % 1004,3 hPa 0,0 l/m 0 min 0 min 0 W/m 0,0 km/h (0 Bft) 98,31 %
27.10.2018 01:50 6,2 C 5,6 C 6,1 C 94 % 1004,4 hPa 0,0 l/m 0 min 0 min 0 W/m 6,4 km/h (2 Bft) 97,87 %
27.10.2018 01:52 6,2 C 5,6 C 6,1 C 94 % 1004,4 hPa 0,0 l/m 0 min 0 min 0 W/m 3,2 km/h (1 Bft) 97,22 %
27.10.2018 01:54 6,2 C 5,6 C 6,1 C 94 % 1004,4 hPa 0,0 l/m 0 min 0 min 0 W/m 6,4 km/h (2 Bft) 95,74 %
27.10.2018 01:56 6,2 C 5,6 C 6,1 C 94 % 1004,3 hPa 0,0 l/m 0 min 0 min 0 W/m 6,4 km/h (2 Bft) 97,87 %
27.10.2018 01:58 6,2 C 5,6 C 6,1 C 94 % 1004,4 hPa 0,0 l/m 0 min 0 min 0 W/m 6,4 km/h (2 Bft) 97,83 %
27.10.2018 02:00 6,2 C 5,6 C 5,6 C 95 % 1004,4 hPa 0,0 l/m 0 min 0 min 0 W/m 6,4 km/h (2 Bft) 97,87 %
27.10.2018 02:02 6,2 C 5,0 C 6,1 C 95 % 1004,4 hPa 0,0 l/m 0 min 0 min 0 W/m 6,4 km/h (2 Bft) 97,87 %
27.10.2018 02:04 6,2 C 5,0 C 5,6 C 95 % 1004,3 hPa 0,0 l/m 0 min 0 min 0 W/m 6,4 km/h (2 Bft) 97,87 %
27.10.2018 02:08 6,2 C 5,0 C 5,6 C 95 % 1004,4 hPa 0,0 l/m 0 min 0 min 0 W/m 6,4 km/h (2 Bft) 97,87 %
27.10.2018 02:10 6,2 C 5,0 C 5,6 C 95 % 1004,3 hPa 0,0 l/m 0 min 0 min 0 W/m 9,7 km/h (2 Bft) 97,83 %
27.10.2018 02:12 6,2 C 5,0 C 5,6 C 95 % 1004,3 hPa 0,0 l/m 0 min 0 min 0 W/m 9,7 km/h (2 Bft) 95,74 %
27.10.2018 02:14 6,2 C 5,0 C 5,6 C 95 % 1004,3 hPa 0,0 l/m 0 min 0 min 0 W/m 6,4 km/h (2 Bft) 95,74 %
27.10.2018 02:16 6,1 C 5,0 C 5,6 C 95 % 1004,3 hPa 0,0 l/m 0 min 0 min 0 W/m 9,7 km/h (2 Bft) 97,87 %
27.10.2018 02:18 6,1 C 5,0 C 5,6 C 95 % 1004,3 hPa 0,0 l/m 0 min 0 min 0 W/m 6,4 km/h (2 Bft) 97,87 %
27.10.2018 02:20 6,1 C 5,0 C 5,6 C 95 % 1004,3 hPa 0,0 l/m 0 min 0 min 0 W/m 6,4 km/h (2 Bft) 97,87 %
27.10.2018 02:22 6,1 C 5,0 C 5,6 C 95 % 1004,3 hPa 0,0 l/m 0 min 0 min 0 W/m 3,2 km/h (1 Bft) 97,83 %
27.10.2018 02:24 6,1 C 5,0 C 5,6 C 95 % 1004,4 hPa 0,0 l/m 0 min 0 min 0 W/m 6,4 km/h (2 Bft) 97,87 %
27.10.2018 02:26 6,0 C 5,0 C 5,6 C 95 % 1004,3 hPa 0,0 l/m 0 min 0 min 0 W/m 6,4 km/h (2 Bft) 97,87 %
27.10.2018 02:28 6,0 C 5,0 C 5,6 C 95 % 1004,4 hPa 0,0 l/m 0 min 0 min 0 W/m 6,4 km/h (2 Bft) 97,87 %
27.10.2018 02:30 6,0 C 5,0 C 5,6 C 95 % 1004,3 hPa 0,0 l/m 0 min 0 min 0 W/m 6,4 km/h (2 Bft) 97,87 %
27.10.2018 02:32 5,9 C 5,0 C 5,6 C 95 % 1004,4 hPa 0,0 l/m 0 min 0 min 0 W/m 6,4 km/h (2 Bft) 97,92 %
27.10.2018 02:34 5,9 C 5,0 C 5,6 C 95 % 1004,4 hPa 0,0 l/m 0 min 0 min 0 W/m 9,7 km/h (2 Bft) 97,87 %
27.10.2018 02:38 5,9 C 5,0 C 5,6 C 95 % 1004,4 hPa 0,0 l/m 0 min 0 min 0 W/m 6,4 km/h (2 Bft) 95,79 %
27.10.2018 02:40 5,9 C 5,0 C 5,6 C 95 % 1004,4 hPa 0,0 l/m 0 min 0 min 0 W/m 6,4 km/h (2 Bft) 93,48 %
27.10.2018 02:42 5,8 C 5,0 C 5,6 C 95 % 1004,4 hPa 0,0 l/m 0 min 0 min 0 W/m 6,4 km/h (2 Bft) 97,87 %
27.10.2018 02:44 5,8 C 5,0 C 5,6 C 95 % 1004,4 hPa 0,0 l/m 0 min 0 min 0 W/m 6,4 km/h (2 Bft) 97,87 %
27.10.2018 02:46 5,8 C 5,0 C 5,6 C 95 % 1004,4 hPa 0,0 l/m 0 min 0 min 0 W/m 12,9 km/h (3 Bft) 91,49 %
27.10.2018 02:48 5,8 C 4,4 C 5,6 C 95 % 1004,4 hPa 0,0 l/m 0 min 0 min 0 W/m 3,2 km/h (1 Bft) 95,74 %
27.10.2018 02:50 5,7 C 4,4 C 5,6 C 95 % 1004,4 hPa 0,0 l/m 0 min 0 min 0 W/m 0,0 km/h (0 Bft) 95,74 %
27.10.2018 02:52 5,7 C 4,4 C 5,0 C 95 % 1004,4 hPa 0,0 l/m 0 min 0 min 0 W/m 3,2 km/h (1 Bft) 95,65 %
27.10.2018 02:54 5,7 C 4,4 C 5,0 C 95 % 1004,5 hPa 0,0 l/m 0 min 0 min 0 W/m 6,4 km/h (2 Bft) 97,87 %
27.10.2018 02:56 5,7 C 4,4 C 5,0 C 95 % 1004,4 hPa 0,0 l/m 0 min 0 min 0 W/m 3,2 km/h (1 Bft) 93,62 %
27.10.2018 02:58 5,7 C 4,4 C 5,6 C 95 % 1004,4 hPa 0,0 l/m 0 min 0 min 0 W/m 3,2 km/h (1 Bft) 97,87 %
27.10.2018 03:00 5,6 C 4,4 C 5,6 C 95 % 1004,5 hPa 0,0 l/m 0 min 0 min 0 W/m 16,1 km/h (3 Bft) 95,74 %
27.10.2018 03:02 5,6 C 4,4 C 5,0 C 95 % 1004,5 hPa 0,0 l/m 0 min 0 min 0 W/m 6,4 km/h (2 Bft) 95,74 %
27.10.2018 03:04 5,6 C 4,4 C 5,0 C 94 % 1004,5 hPa 0,0 l/m 0 min 0 min 0 W/m 3,2 km/h (1 Bft) 89,13 %
27.10.2018 03:08 5,6 C 4,4 C 5,0 C 94 % 1004,6 hPa 0,0 l/m 0 min 0 min 0 W/m 3,2 km/h (1 Bft) 94,68 %
27.10.2018 03:10 5,5 C 4,4 C 5,0 C 94 % 1004,6 hPa 0,0 l/m 0 min 0 min 0 W/m 3,2 km/h (1 Bft) 93,62 %
27.10.2018 03:12 5,5 C 4,4 C 5,0 C 94 % 1004,6 hPa 0,0 l/m 0 min 0 min 0 W/m 3,2 km/h (1 Bft) 95,74 %
27.10.2018 03:14 5,5 C 4,4 C 5,0 C 94 % 1004,6 hPa 0,0 l/m 0 min 0 min 0 W/m 3,2 km/h (1 Bft) 93,62 %
27.10.2018 03:16 5,5 C 4,4 C 5,0 C 94 % 1004,5 hPa 0,0 l/m 0 min 0 min 0 W/m 3,2 km/h (1 Bft) 95,65 %
27.10.2018 03:18 5,4 C 4,4 C 5,0 C 94 % 1004,6 hPa 0,0 l/m 0 min 0 min 0 W/m 6,4 km/h (2 Bft) 95,74 %
27.10.2018 03:20 5,4 C 4,4 C 5,0 C 94 % 1004,6 hPa 0,0 l/m 0 min 0 min 0 W/m 3,2 km/h (1 Bft) 95,74 %
27.10.2018 03:22 5,4 C 4,4 C 5,0 C 94 % 1004,6 hPa 0,0 l/m 0 min 0 min 0 W/m 6,4 km/h (2 Bft) 93,62 %
27.10.2018 03:24 5,4 C 4,4 C 5,0 C 94 % 1004,5 hPa 0,0 l/m 0 min 0 min 0 W/m 3,2 km/h (1 Bft) 95,74 %
27.10.2018 03:26 5,4 C 4,4 C 5,0 C 94 % 1004,6 hPa 0,0 l/m 0 min 0 min 0 W/m 9,7 km/h (2 Bft) 95,74 %
27.10.2018 03:28 5,4 C 4,4 C 5,0 C 94 % 1004,5 hPa 0,0 l/m 0 min 0 min 0 W/m 3,2 km/h (1 Bft) 93,48 %
27.10.2018 03:30 5,4 C 4,4 C 5,0 C 94 % 1004,5 hPa 0,0 l/m 0 min 0 min 0 W/m 3,2 km/h (1 Bft) 95,74 %
27.10.2018 03:32 5,4 C 4,4 C 5,0 C 94 % 1004,5 hPa 0,0 l/m 0 min 0 min 0 W/m 9,7 km/h (2 Bft) 95,74 %
27.10.2018 03:34 5,4 C 4,4 C 5,0 C 94 % 1004,5 hPa 0,0 l/m 0 min 0 min 0 W/m 12,9 km/h (3 Bft) 95,74 %
27.10.2018 03:38 5,4 C 4,4 C 5,0 C 94 % 1004,5 hPa 0,0 l/m 0 min 0 min 0 W/m 9,7 km/h (2 Bft) 97,87 %
27.10.2018 03:40 5,4 C 4,4 C 5,0 C 94 % 1004,4 hPa 0,0 l/m 0 min 0 min 0 W/m 6,4 km/h (2 Bft) 100,00 %
27.10.2018 03:42 5,4 C 4,4 C 5,0 C 94 % 1004,5 hPa 0,0 l/m 0 min 0 min 0 W/m 6,4 km/h (2 Bft) 97,87 %
27.10.2018 03:44 5,4 C 4,4 C 5,0 C 94 % 1004,5 hPa 0,0 l/m 0 min 0 min 0 W/m 6,4 km/h (2 Bft) 97,87 %
27.10.2018 03:46 5,4 C 4,4 C 5,0 C 95 % 1004,5 hPa 0,0 l/m 0 min 0 min 0 W/m 12,9 km/h (3 Bft) 100,00 %
27.10.2018 03:48 5,3 C 4,4 C 5,0 C 95 % 1004,4 hPa 0,0 l/m 0 min 0 min 0 W/m 12,9 km/h (3 Bft) 100,00 %
27.10.2018 03:50 5,4 C 4,4 C 5,0 C 95 % 1004,4 hPa 0,0 l/m 0 min 0 min 0 W/m 9,7 km/h (2 Bft) 100,00 %
27.10.2018 03:52 5,3 C 4,4 C 5,0 C 95 % 1004,4 hPa 0,0 l/m 0 min 0 min 0 W/m 0,0 km/h (0 Bft) 100,00 %
27.10.2018 03:54 5,4 C 4,4 C 5,0 C 95 % 1004,3 hPa 0,0 l/m 0 min 0 min 0 W/m 6,4 km/h (2 Bft) 97,87 %
27.10.2018 03:56 5,3 C 4,4 C 5,0 C 95 % 1004,4 hPa 0,0 l/m 0 min 0 min 0 W/m 9,7 km/h (2 Bft) 100,00 %
27.10.2018 03:58 5,3 C 4,4 C 5,0 C 95 % 1004,4 hPa 0,0 l/m 0 min 0 min 0 W/m 9,7 km/h (2 Bft) 100,00 %
27.10.2018 04:00 5,3 C 4,4 C 5,0 C 95 % 1004,4 hPa 0,0 l/m 0 min 0 min 0 W/m 6,4 km/h (2 Bft) 100,00 %
27.10.2018 04:02 5,3 C 4,4 C 5,0 C 95 % 1004,5 hPa 0,0 l/m 0 min 0 min 0 W/m 16,1 km/h (3 Bft) 100,00 %
27.10.2018 04:07 5,4 C 4,4 C 5,0 C 95 % 1004,4 hPa 0,0 l/m 0 min 0 min 0 W/m 16,1 km/h (3 Bft) 97,67 %
27.10.2018 04:08 5,4 C 4,4 C 5,0 C 95 % 1004,4 hPa 0,0 l/m 0 min 0 min 0 W/m 3,2 km/h (1 Bft) 100,00 %
27.10.2018 04:10 5,4 C 4,4 C 5,0 C 95 % 1004,3 hPa 0,0 l/m 0 min 0 min 0 W/m 6,4 km/h (2 Bft) 100,00 %
27.10.2018 04:12 5,4 C 4,4 C 5,0 C 95 % 1004,3 hPa 0,0 l/m 0 min 0 min 0 W/m 6,4 km/h (2 Bft) 97,87 %
27.10.2018 04:14 5,4 C 4,4 C 5,0 C 95 % 1004,2 hPa 0,0 l/m 0 min 0 min 0 W/m 6,4 km/h (2 Bft) 100,00 %
27.10.2018 04:16 5,4 C 4,4 C 5,0 C 95 % 1004,2 hPa 0,0 l/m 0 min 0 min 0 W/m 6,4 km/h (2 Bft) 97,87 %
27.10.2018 04:18 5,4 C 4,4 C 5,0 C 95 % 1004,2 hPa 0,0 l/m 0 min 0 min 0 W/m 9,7 km/h (2 Bft) 100,00 %
27.10.2018 04:20 5,4 C 4,4 C 5,0 C 95 % 1004,2 hPa 0,0 l/m 0 min 0 min 0 W/m 12,9 km/h (3 Bft) 100,00 %
27.10.2018 04:22 5,4 C 4,4 C 5,0 C 95 % 1004,3 hPa 0,0 l/m 0 min 0 min 0 W/m 6,4 km/h (2 Bft) 97,87 %
27.10.2018 04:24 5,4 C 4,4 C 5,0 C 95 % 1004,3 hPa 0,0 l/m 0 min 0 min 0 W/m 9,7 km/h (2 Bft) 100,00 %
27.10.2018 04:26 5,4 C 4,4 C 5,0 C 95 % 1004,3 hPa 0,0 l/m 0 min 0 min 0 W/m 6,4 km/h (2 Bft) 100,00 %
27.10.2018 04:28 5,4 C 4,4 C 5,0 C 94 % 1004,3 hPa 0,0 l/m 0 min 0 min 0 W/m 9,7 km/h (2 Bft) 100,00 %
27.10.2018 04:30 5,3 C 4,4 C 5,0 C 94 % 1004,3 hPa 0,0 l/m 0 min 0 min 0 W/m 6,4 km/h (2 Bft) 100,00 %
27.10.2018 04:32 5,3 C 4,4 C 5,0 C 94 % 1004,4 hPa 0,0 l/m 0 min 0 min 0 W/m 9,7 km/h (2 Bft) 97,87 %
27.10.2018 04:34 5,3 C 4,4 C 5,0 C 94 % 1004,3 hPa 0,0 l/m 0 min 0 min 0 W/m 9,7 km/h (2 Bft) 100,00 %
27.10.2018 04:38 5,3 C 4,4 C 5,0 C 94 % 1004,3 hPa 0,0 l/m 0 min 0 min 0 W/m 12,9 km/h (3 Bft) 100,00 %
27.10.2018 04:40 5,3 C 4,4 C 5,0 C 94 % 1004,3 hPa 0,0 l/m 0 min 0 min 0 W/m 9,7 km/h (2 Bft) 100,00 %
27.10.2018 04:42 5,3 C 4,4 C 5,0 C 94 % 1004,3 hPa 0,0 l/m 0 min 0 min 0 W/m 6,4 km/h (2 Bft) 100,00 %
27.10.2018 04:44 5,3 C 4,4 C 5,0 C 94 % 1004,3 hPa 0,0 l/m 0 min 0 min 0 W/m 6,4 km/h (2 Bft) 100,00 %
27.10.2018 04:46 5,3 C 4,4 C 5,0 C 94 % 1004,3 hPa 0,0 l/m 0 min 0 min 0 W/m 9,7 km/h (2 Bft) 97,87 %
27.10.2018 04:48 5,3 C 4,4 C 5,0 C 94 % 1004,4 hPa 0,0 l/m 0 min 0 min 0 W/m 12,9 km/h (3 Bft) 100,00 %
27.10.2018 04:50 5,3 C 4,4 C 5,0 C 94 % 1004,4 hPa 0,0 l/m 0 min 0 min 0 W/m 6,4 km/h (2 Bft) 100,00 %
27.10.2018 04:52 5,3 C 4,4 C 5,0 C 94 % 1004,4 hPa 0,0 l/m 0 min 0 min 0 W/m 6,4 km/h (2 Bft) 100,00 %
27.10.2018 04:54 5,3 C 4,4 C 5,0 C 94 % 1004,4 hPa 0,0 l/m 0 min 0 min 0 W/m 6,4 km/h (2 Bft) 100,00 %
27.10.2018 04:56 5,2 C 4,4 C 5,0 C 94 % 1004,4 hPa 0,0 l/m 0 min 0 min 0 W/m 3,2 km/h (1 Bft) 100,00 %
27.10.2018 04:58 5,3 C 4,4 C 5,0 C 94 % 1004,5 hPa 0,0 l/m 0 min 0 min 0 W/m 9,7 km/h (2 Bft) 97,87 %
27.10.2018 05:00 5,2 C 4,4 C 5,0 C 94 % 1004,4 hPa 0,0 l/m 0 min 0 min 0 W/m 9,7 km/h (2 Bft) 100,00 %
27.10.2018 05:02 5,3 C 4,4 C 5,0 C 94 % 1004,4 hPa 0,0 l/m 0 min 0 min 0 W/m 6,4 km/h (2 Bft) 97,83 %
27.10.2018 05:04 5,3 C 4,4 C 5,0 C 94 % 1004,4 hPa 0,0 l/m 0 min 0 min 0 W/m 6,4 km/h (2 Bft) 97,87 %
27.10.2018 05:08 5,3 C 4,4 C 5,0 C 94 % 1004,4 hPa 0,0 l/m 0 min 0 min 0 W/m 6,4 km/h (2 Bft) 97,87 %
27.10.2018 05:10 5,3 C 4,4 C 5,0 C 94 % 1004,4 hPa 0,0 l/m 0 min 0 min 0 W/m 6,4 km/h (2 Bft) 100,00 %
27.10.2018 05:12 5,3 C 5,0 C 5,0 C 94 % 1004,5 hPa 0,0 l/m 0 min 0 min 0 W/m 19,3 km/h (3 Bft) 97,87 %
27.10.2018 05:14 5,3 C 5,0 C 5,0 C 94 % 1004,5 hPa 0,0 l/m 0 min 0 min 0 W/m 9,7 km/h (2 Bft) 100,00 %
27.10.2018 05:19 5,3 C 5,0 C 5,0 C 94 % 1004,6 hPa 0,0 l/m 0 min 5 min 0 W/m 6,4 km/h (2 Bft) 100,00 %
27.10.2018 05:20 5,3 C 5,0 C 5,0 C 94 % 1004,5 hPa 0,0 l/m 0 min 1 min 0 W/m 3,2 km/h (1 Bft) 100,00 %
27.10.2018 05:22 5,3 C 5,0 C 5,0 C 94 % 1004,5 hPa 0,0 l/m 0 min 0 min 0 W/m 6,4 km/h (2 Bft) 95,74 %
27.10.2018 05:24 5,3 C 5,0 C 5,0 C 94 % 1004,6 hPa 0,0 l/m 0 min 2 min 0 W/m 9,7 km/h (2 Bft) 95,65 %
27.10.2018 05:26 5,3 C 5,0 C 5,0 C 94 % 1004,5 hPa 0,0 l/m 0 min 2 min 0 W/m 6,4 km/h (2 Bft) 97,87 %
27.10.2018 05:28 5,3 C 4,4 C 5,0 C 94 % 1004,5 hPa 0,0 l/m 0 min 2 min 0 W/m 9,7 km/h (2 Bft) 97,87 %
27.10.2018 05:30 5,3 C 4,4 C 5,0 C 94 % 1004,6 hPa 0,0 l/m 0 min 2 min 0 W/m 6,4 km/h (2 Bft) 97,87 %
27.10.2018 05:32 5,4 C 4,4 C 5,0 C 94 % 1004,5 hPa 0,0 l/m 0 min 2 min 0 W/m 3,2 km/h (1 Bft) 97,87 %
27.10.2018 05:34 5,4 C 4,4 C 5,0 C 94 % 1004,5 hPa 0,0 l/m 0 min 2 min 0 W/m 6,4 km/h (2 Bft) 97,87 %
27.10.2018 05:38 5,4 C 4,4 C 5,0 C 94 % 1004,5 hPa 0,0 l/m 0 min 0 min 0 W/m 6,4 km/h (2 Bft) 97,85 %
27.10.2018 05:40 5,4 C 4,4 C 5,0 C 94 % 1004,5 hPa 0,2 l/m 0 min 0 min 0 W/m 6,4 km/h (2 Bft) 97,87 %
27.10.2018 05:42 5,4 C 4,4 C 4,4 C 94 % 1004,5 hPa 0,0 l/m 0 min 0 min 0 W/m 6,4 km/h (2 Bft) 95,74 %
27.10.2018 05:44 5,4 C 4,4 C 4,4 C 94 % 1004,6 hPa 0,0 l/m 0 min 2 min 0 W/m 6,4 km/h (2 Bft) 97,87 %
27.10.2018 05:46 5,4 C 4,4 C 5,0 C 94 % 1004,5 hPa 0,0 l/m 0 min 0 min 0 W/m 12,9 km/h (3 Bft) 97,87 %
27.10.2018 05:48 5,4 C 4,4 C 4,4 C 94 % 1004,5 hPa 0,0 l/m 0 min 0 min 0 W/m 6,4 km/h (2 Bft) 95,65 %
27.10.2018 05:50 5,4 C 4,4 C 4,4 C 94 % 1004,6 hPa 0,0 l/m 0 min 0 min 0 W/m 6,4 km/h (2 Bft) 95,74 %
27.10.2018 05:52 5,4 C 4,4 C 4,4 C 94 % 1004,6 hPa 0,0 l/m 0 min 0 min 0 W/m 3,2 km/h (1 Bft) 91,49 %
27.10.2018 05:54 5,4 C 4,4 C 4,4 C 94 % 1004,5 hPa 0,0 l/m 0 min 0 min 0 W/m 3,2 km/h (1 Bft) 91,49 %
27.10.2018 05:56 5,4 C 4,4 C 4,4 C 94 % 1004,5 hPa 0,0 l/m 0 min 0 min 0 W/m 9,7 km/h (2 Bft) 97,87 %
27.10.2018 05:58 5,3 C 4,4 C 4,4 C 94 % 1004,5 hPa 0,0 l/m 0 min 0 min 0 W/m 6,4 km/h (2 Bft) 95,74 %
27.10.2018 06:00 5,3 C 4,4 C 4,4 C 94 % 1004,4 hPa 0,0 l/m 0 min 0 min 0 W/m 6,4 km/h (2 Bft) 100,00 %
27.10.2018 06:02 5,3 C 4,4 C 4,4 C 94 % 1004,4 hPa 0,0 l/m 0 min 0 min 0 W/m 9,7 km/h (2 Bft) 93,62 %
27.10.2018 06:04 5,3 C 4,4 C 5,0 C 94 % 1004,5 hPa 0,0 l/m 0 min 0 min 0 W/m 9,7 km/h (2 Bft) 95,74 %
27.10.2018 06:08 5,3 C 4,4 C 4,4 C 94 % 1004,5 hPa 0,0 l/m 0 min 0 min 0 W/m 6,4 km/h (2 Bft) 92,55 %
27.10.2018 06:10 5,3 C 4,4 C 4,4 C 94 % 1004,5 hPa 0,0 l/m 0 min 0 min 0 W/m 9,7 km/h (2 Bft) 91,49 %
27.10.2018 06:12 5,2 C 4,4 C 4,4 C 94 % 1004,6 hPa 0,0 l/m 0 min 0 min 0 W/m 3,2 km/h (1 Bft) 93,48 %
27.10.2018 06:14 5,2 C 4,4 C 4,4 C 94 % 1004,6 hPa 0,0 l/m 0 min 0 min 0 W/m 6,4 km/h (2 Bft) 93,75 %
27.10.2018 06:16 5,2 C 4,4 C 4,4 C 94 % 1004,5 hPa 0,0 l/m 0 min 0 min 0 W/m 6,4 km/h (2 Bft) 95,74 %
27.10.2018 06:18 5,2 C 4,4 C 4,4 C 94 % 1004,5 hPa 0,0 l/m 0 min 0 min 0 W/m 6,4 km/h (2 Bft) 95,74 %
27.10.2018 06:20 5,2 C 4,4 C 4,4 C 94 % 1004,6 hPa 0,0 l/m 0 min 0 min 0 W/m 6,4 km/h (2 Bft) 95,74 %
27.10.2018 06:22 5,2 C 4,4 C 4,4 C 94 % 1004,6 hPa 0,0 l/m 0 min 2 min 0 W/m 6,4 km/h (2 Bft) 95,65 %
27.10.2018 06:24 5,2 C 4,4 C 4,4 C 94 % 1004,5 hPa 0,0 l/m 0 min 0 min 0 W/m 0,0 km/h (0 Bft) 91,49 %
27.10.2018 06:26 5,1 C 4,4 C 4,4 C 94 % 1004,5 hPa 0,0 l/m 0 min 0 min 0 W/m 3,2 km/h (1 Bft) 93,62 %
27.10.2018 06:28 5,1 C 4,4 C 4,4 C 94 % 1004,6 hPa 0,0 l/m 0 min 0 min 0 W/m 6,4 km/h (2 Bft) 95,74 %
27.10.2018 06:30 5,1 C 4,4 C 4,4 C 94 % 1004,6 hPa 0,0 l/m 0 min 0 min 0 W/m 6,4 km/h (2 Bft) 93,62 %
27.10.2018 06:32 5,1 C 4,4 C 4,4 C 94 % 1004,5 hPa 0,0 l/m 0 min 0 min 0 W/m 3,2 km/h (1 Bft) 93,62 %
27.10.2018 06:34 5,1 C 3,9 C 4,4 C 94 % 1004,5 hPa 0,0 l/m 0 min 0 min 0 W/m 3,2 km/h (1 Bft) 95,65 %
27.10.2018 06:38 5,1 C 3,9 C 4,4 C 94 % 1004,4 hPa 0,0 l/m 0 min 0 min 0 W/m 6,4 km/h (2 Bft) 95,79 %
27.10.2018 06:40 5,0 C 3,9 C 4,4 C 94 % 1004,4 hPa 0,0 l/m 0 min 0 min 0 W/m 6,4 km/h (2 Bft) 93,62 %
27.10.2018 06:42 5,0 C 3,9 C 4,4 C 94 % 1004,4 hPa 0,0 l/m 0 min 0 min 0 W/m 3,2 km/h (1 Bft) 95,74 %
27.10.2018 06:44 5,0 C 3,9 C 4,4 C 94 % 1004,5 hPa 0,0 l/m 0 min 0 min 0 W/m 6,4 km/h (2 Bft) 95,74 %
27.10.2018 06:46 4,9 C 3,9 C 4,4 C 94 % 1004,5 hPa 0,0 l/m 0 min 0 min 0 W/m 6,4 km/h (2 Bft) 97,83 %
27.10.2018 06:48 4,9 C 3,9 C 4,4 C 94 % 1004,5 hPa 0,0 l/m 0 min 0 min 0 W/m 0,0 km/h (0 Bft) 97,87 %
27.10.2018 06:50 4,9 C 3,9 C 4,4 C 94 % 1004,5 hPa 0,0 l/m 0 min 0 min 0 W/m 6,4 km/h (2 Bft) 97,87 %
27.10.2018 06:52 4,9 C 3,9 C 4,4 C 94 % 1004,5 hPa 0,0 l/m 0 min 0 min 0 W/m 6,4 km/h (2 Bft) 95,74 %
27.10.2018 06:54 4,9 C 3,9 C 4,4 C 94 % 1004,5 hPa 0,0 l/m 0 min 0 min 0 W/m 6,4 km/h (2 Bft) 97,87 %
27.10.2018 06:56 4,9 C 3,9 C 4,4 C 94 % 1004,5 hPa 0,0 l/m 0 min 0 min 0 W/m 6,4 km/h (2 Bft) 97,83 %
27.10.2018 06:58 4,8 C 3,9 C 4,4 C 94 % 1004,6 hPa 0,0 l/m 0 min 0 min 0 W/m 6,4 km/h (2 Bft) 97,87 %
27.10.2018 07:00 4,8 C 3,9 C 4,4 C 94 % 1004,5 hPa 0,0 l/m 0 min 0 min 0 W/m 0,0 km/h (0 Bft) 97,87 %
27.10.2018 07:02 4,8 C 3,9 C 4,4 C 94 % 1004,5 hPa 0,0 l/m 0 min 0 min 0 W/m 3,2 km/h (1 Bft) 93,62 %
27.10.2018 07:04 4,8 C 3,9 C 4,4 C 94 % 1004,6 hPa 0,0 l/m 0 min 0 min 0 W/m 9,7 km/h (2 Bft) 95,74 %
27.10.2018 07:08 4,7 C 3,9 C 4,4 C 94 % 1004,6 hPa 0,0 l/m 0 min 0 min 0 W/m 3,2 km/h (1 Bft) 97,87 %
27.10.2018 07:10 4,7 C 3,9 C 4,4 C 94 % 1004,6 hPa 0,0 l/m 0 min 0 min 0 W/m 0,0 km/h (0 Bft) 97,87 %
27.10.2018 07:12 4,7 C 3,9 C 4,4 C 94 % 1004,6 hPa 0,0 l/m 0 min 0 min 0 W/m 6,4 km/h (2 Bft) 95,74 %
27.10.2018 07:14 4,7 C 3,9 C 4,4 C 94 % 1004,6 hPa 0,0 l/m 0 min 0 min 0 W/m 6,4 km/h (2 Bft) 97,87 %
27.10.2018 07:16 4,7 C 3,9 C 4,4 C 94 % 1004,6 hPa 0,0 l/m 0 min 0 min 0 W/m 6,4 km/h (2 Bft) 97,87 %
27.10.2018 07:18 4,7 C 3,9 C 4,4 C 94 % 1004,6 hPa 0,0 l/m 0 min 0 min 0 W/m 3,2 km/h (1 Bft) 97,87 %
27.10.2018 07:20 4,6 C 3,9 C 4,4 C 94 % 1004,6 hPa 0,0 l/m 0 min 0 min 0 W/m 3,2 km/h (1 Bft) 97,83 %
27.10.2018 07:22 4,6 C 3,9 C 3,9 C 94 % 1004,6 hPa 0,0 l/m 0 min 0 min 0 W/m 3,2 km/h (1 Bft) 95,74 %
27.10.2018 07:24 4,6 C 3,9 C 3,9 C 94 % 1004,6 hPa 0,0 l/m 0 min 0 min 0 W/m 3,2 km/h (1 Bft) 95,74 %
27.10.2018 07:26 4,6 C 3,9 C 3,9 C 94 % 1004,6 hPa 0,0 l/m 0 min 0 min 0 W/m 3,2 km/h (1 Bft) 95,74 %
27.10.2018 07:28 4,6 C 3,9 C 3,9 C 94 % 1004,6 hPa 0,0 l/m 0 min 0 min 0 W/m 3,2 km/h (1 Bft) 100,00 %
27.10.2018 07:30 4,5 C 3,9 C 3,9 C 94 % 1004,7 hPa 0,0 l/m 0 min 0 min 0 W/m 6,4 km/h (2 Bft) 100,00 %
27.10.2018 07:32 4,5 C 3,9 C 3,9 C 94 % 1004,7 hPa 0,0 l/m 0 min 0 min 0 W/m 6,4 km/h (2 Bft) 95,65 %
27.10.2018 07:34 4,5 C 3,9 C 3,9 C 94 % 1004,6 hPa 0,0 l/m 0 min 0 min 0 W/m 3,2 km/h (1 Bft) 97,87 %
27.10.2018 07:38 4,4 C 3,9 C 4,4 C 94 % 1004,7 hPa 0,0 l/m 0 min 0 min 0 W/m 6,4 km/h (2 Bft) 92,55 %
27.10.2018 07:40 4,4 C 3,9 C 4,4 C 94 % 1004,7 hPa 0,0 l/m 0 min 0 min 0 W/m 3,2 km/h (1 Bft) 97,87 %
27.10.2018 07:42 4,4 C 3,9 C 4,4 C 94 % 1004,7 hPa 0,0 l/m 0 min 0 min 0 W/m 6,4 km/h (2 Bft) 97,87 %
27.10.2018 07:44 4,4 C 3,9 C 4,4 C 94 % 1004,7 hPa 0,0 l/m 0 min 0 min 0 W/m 6,4 km/h (2 Bft) 97,83 %
27.10.2018 07:46 4,4 C 3,9 C 4,4 C 94 % 1004,7 hPa 0,0 l/m 0 min 0 min 0 W/m 3,2 km/h (1 Bft) 95,74 %
27.10.2018 07:48 4,4 C 3,9 C 4,4 C 94 % 1004,7 hPa 0,0 l/m 0 min 0 min 0 W/m 3,2 km/h (1 Bft) 97,87 %
27.10.2018 07:50 4,4 C 3,9 C 4,4 C 94 % 1004,7 hPa 0,0 l/m 0 min 0 min 0 W/m 6,4 km/h (2 Bft) 97,87 %
27.10.2018 07:52 4,4 C 3,9 C 4,4 C 94 % 1004,7 hPa 0,0 l/m 0 min 0 min 0 W/m 3,2 km/h (1 Bft) 97,87 %
27.10.2018 07:54 4,4 C 3,9 C 3,9 C 94 % 1004,8 hPa 0,0 l/m 0 min 0 min 0 W/m 3,2 km/h (1 Bft) 97,87 %
27.10.2018 07:56 4,4 C 3,9 C 3,9 C 94 % 1004,8 hPa 0,0 l/m 0 min 0 min 0 W/m 3,2 km/h (1 Bft) 95,65 %
27.10.2018 07:58 4,4 C 3,9 C 3,9 C 94 % 1004,8 hPa 0,0 l/m 0 min 0 min 0 W/m 12,9 km/h (3 Bft) 97,87 %
27.10.2018 08:00 4,4 C 3,9 C 3,9 C 94 % 1004,8 hPa 0,0 l/m 0 min 0 min 0 W/m 6,4 km/h (2 Bft) 97,87 %
27.10.2018 08:02 4,4 C 3,9 C 3,9 C 94 % 1004,8 hPa 0,0 l/m 0 min 0 min 0 W/m 3,2 km/h (1 Bft) 95,74 %
27.10.2018 08:04 4,3 C 3,9 C 3,9 C 94 % 1004,7 hPa 0,0 l/m 0 min 0 min 0 W/m 6,4 km/h (2 Bft) 97,87 %
27.10.2018 08:08 4,3 C 3,9 C 3,9 C 94 % 1004,8 hPa 0,0 l/m 0 min 0 min 0 W/m 9,7 km/h (2 Bft) 95,74 %
27.10.2018 08:10 4,3 C 3,9 C 3,9 C 94 % 1004,8 hPa 0,0 l/m 0 min 0 min 0 W/m 3,2 km/h (1 Bft) 97,87 %
27.10.2018 08:12 4,3 C 3,9 C 3,9 C 94 % 1004,8 hPa 0,0 l/m 0 min 0 min 0 W/m 3,2 km/h (1 Bft) 100,00 %
27.10.2018 08:14 4,3 C 3,9 C 3,9 C 94 % 1004,9 hPa 0,0 l/m 0 min 0 min 0 W/m 9,7 km/h (2 Bft) 100,00 %
27.10.2018 08:16 4,3 C 3,9 C 3,9 C 95 % 1004,9 hPa 0,0 l/m 0 min 0 min 0 W/m 6,4 km/h (2 Bft) 100,00 %
27.10.2018 08:18 4,3 C 3,9 C 3,9 C 95 % 1004,9 hPa 0,0 l/m 0 min 0 min 0 W/m 3,2 km/h (1 Bft) 100,00 %
27.10.2018 08:20 4,3 C 3,9 C 3,9 C 95 % 1004,9 hPa 0,0 l/m 0 min 0 min 2 W/m 6,4 km/h (2 Bft) 100,00 %
27.10.2018 08:22 4,3 C 3,9 C 3,9 C 95 % 1004,9 hPa 0,0 l/m 0 min 0 min 5 W/m 12,9 km/h (3 Bft) 100,00 %
27.10.2018 08:24 4,3 C 3,9 C 3,9 C 95 % 1005,0 hPa 0,0 l/m 0 min 0 min 5 W/m 6,4 km/h (2 Bft) 100,00 %
27.10.2018 08:26 4,3 C 3,9 C 3,9 C 95 % 1005,0 hPa 0,0 l/m 0 min 0 min 5 W/m 3,2 km/h (1 Bft) 100,00 %
27.10.2018 08:28 4,3 C 3,9 C 3,9 C 95 % 1005,0 hPa 0,0 l/m 0 min 0 min 6 W/m 3,2 km/h (1 Bft) 100,00 %
27.10.2018 08:30 4,2 C 3,3 C 3,9 C 95 % 1005,0 hPa 0,0 l/m 0 min 0 min 7 W/m 3,2 km/h (1 Bft) 100,00 %
27.10.2018 08:32 4,2 C 3,9 C 3,9 C 95 % 1005,1 hPa 0,0 l/m 0 min 0 min 7 W/m 3,2 km/h (1 Bft) 100,00 %
27.10.2018 08:34 4,2 C 3,9 C 3,9 C 95 % 1005,1 hPa 0,0 l/m 0 min 0 min 8 W/m 3,2 km/h (1 Bft) 100,00 %
27.10.2018 08:38 4,2 C 3,9 C 3,9 C 94 % 1005,1 hPa 0,0 l/m 0 min 0 min 10 W/m 3,2 km/h (1 Bft) 100,00 %
27.10.2018 08:40 4,2 C 3,9 C 3,9 C 94 % 1005,0 hPa 0,0 l/m 0 min 0 min 12 W/m 6,4 km/h (2 Bft) 100,00 %
27.10.2018 08:42 4,2 C 3,9 C 3,9 C 94 % 1005,1 hPa 0,0 l/m 0 min 0 min 14 W/m 3,2 km/h (1 Bft) 97,83 %
27.10.2018 08:44 4,2 C 3,9 C 3,9 C 95 % 1005,0 hPa 0,0 l/m 0 min 0 min 14 W/m 6,4 km/h (2 Bft) 100,00 %
27.10.2018 08:46 4,2 C 3,9 C 3,9 C 95 % 1005,1 hPa 0,0 l/m 0 min 0 min 14 W/m 6,4 km/h (2 Bft) 97,87 %
27.10.2018 08:48 4,2 C 3,9 C 3,9 C 95 % 1005,1 hPa 0,0 l/m 0 min 0 min 14 W/m 3,2 km/h (1 Bft) 100,00 %
27.10.2018 08:50 4,2 C 3,3 C 3,9 C 95 % 1005,0 hPa 0,0 l/m 0 min 0 min 16 W/m 0,0 km/h (0 Bft) 100,00 %
27.10.2018 08:52 4,2 C 3,9 C 3,9 C 95 % 1005,2 hPa 0,0 l/m 0 min 0 min 16 W/m 0,0 km/h (0 Bft) 97,87 %
27.10.2018 08:54 4,2 C 3,9 C 3,9 C 95 % 1005,1 hPa 0,0 l/m 0 min 0 min 15 W/m 0,0 km/h (0 Bft) 97,96 %
27.10.2018 08:56 4,2 C 3,9 C 3,9 C 95 % 1005,1 hPa 0,0 l/m 0 min 0 min 15 W/m 0,0 km/h (0 Bft) 97,87 %
27.10.2018 08:58 4,2 C 3,9 C 3,9 C 95 % 1005,1 hPa 0,0 l/m 0 min 0 min 16 W/m 9,7 km/h (2 Bft) 97,87 %
27.10.2018 09:00 4,2 C 3,9 C 3,9 C 95 % 1005,1 hPa 0,0 l/m 0 min 0 min 18 W/m 3,2 km/h (1 Bft) 97,87 %
27.10.2018 09:02 4,2 C 3,9 C 3,9 C 95 % 1005,1 hPa 0,0 l/m 0 min 0 min 20 W/m 6,4 km/h (2 Bft) 97,87 %
27.10.2018 09:04 4,2 C 3,9 C 3,9 C 95 % 1005,1 hPa 0,0 l/m 0 min 0 min 21 W/m 6,4 km/h (2 Bft) 97,83 %
27.10.2018 09:08 4,2 C 3,9 C 3,9 C 95 % 1005,1 hPa 0,0 l/m 0 min 0 min 21 W/m 6,4 km/h (2 Bft) 95,74 %
27.10.2018 09:10 4,2 C 3,9 C 3,9 C 95 % 1005,1 hPa 0,0 l/m 0 min 0 min 23 W/m 6,4 km/h (2 Bft) 97,87 %
27.10.2018 09:12 4,2 C 3,9 C 3,9 C 95 % 1005,1 hPa 0,0 l/m 0 min 0 min 23 W/m 6,4 km/h (2 Bft) 97,87 %
27.10.2018 09:14 4,2 C 3,9 C 3,9 C 95 % 1005,1 hPa 0,0 l/m 0 min 0 min 23 W/m 6,4 km/h (2 Bft) 97,87 %
27.10.2018 09:16 4,2 C 3,9 C 3,9 C 95 % 1005,2 hPa 0,0 l/m 0 min 2 min 25 W/m 9,7 km/h (2 Bft) 97,83 %
27.10.2018 09:18 4,2 C 3,9 C 3,9 C 95 % 1005,2 hPa 0,0 l/m 0 min 2 min 25 W/m 6,4 km/h (2 Bft) 97,87 %
27.10.2018 09:20 4,2 C 3,9 C 3,9 C 95 % 1005,4 hPa 0,0 l/m 0 min 0 min 26 W/m 0,0 km/h (0 Bft) 97,87 %
27.10.2018 09:22 4,2 C 3,9 C 3,9 C 95 % 1005,3 hPa 0,0 l/m 0 min 0 min 26 W/m 0,0 km/h (0 Bft) 97,87 %
27.10.2018 09:24 4,2 C 3,9 C 3,9 C 95 % 1005,4 hPa 0,0 l/m 0 min 0 min 28 W/m 0,0 km/h (0 Bft) 95,74 %
27.10.2018 09:26 4,2 C 3,9 C 3,9 C 95 % 1005,4 hPa 0,0 l/m 0 min 0 min 28 W/m 0,0 km/h (0 Bft) 97,87 %
27.10.2018 09:28 4,2 C 3,9 C 4,4 C 95 % 1005,3 hPa 0,0 l/m 0 min 0 min 30 W/m 0,0 km/h (0 Bft) 97,83 %
27.10.2018 09:30 4,3 C 4,4 C 4,4 C 95 % 1005,3 hPa 0,0 l/m 0 min 0 min 30 W/m 3,2 km/h (1 Bft) 97,87 %
27.10.2018 09:32 4,3 C 4,4 C 4,4 C 95 % 1005,3 hPa 0,0 l/m 0 min 0 min 31 W/m 6,4 km/h (2 Bft) 97,87 %
27.10.2018 09:34 4,3 C 4,4 C 4,4 C 95 % 1005,4 hPa 0,0 l/m 0 min 0 min 31 W/m 3,2 km/h (1 Bft) 95,74 %
27.10.2018 09:38 4,3 C 4,4 C 4,4 C 95 % 1005,4 hPa 0,0 l/m 0 min 0 min 32 W/m 12,9 km/h (3 Bft) 95,74 %
27.10.2018 09:40 4,4 C 4,4 C 4,4 C 95 % 1005,4 hPa 0,0 l/m 0 min 0 min 32 W/m 12,9 km/h (3 Bft) 95,65 %
27.10.2018 09:42 4,4 C 4,4 C 4,4 C 95 % 1005,4 hPa 0,0 l/m 0 min 0 min 32 W/m 6,4 km/h (2 Bft) 95,74 %
27.10.2018 09:44 4,4 C 4,4 C 4,4 C 95 % 1005,5 hPa 0,0 l/m 0 min 0 min 34 W/m 0,0 km/h (0 Bft) 95,74 %
27.10.2018 09:46 4,5 C 4,4 C 4,4 C 95 % 1005,6 hPa 0,0 l/m 0 min 0 min 34 W/m 6,4 km/h (2 Bft) 97,87 %
27.10.2018 09:48 4,5 C 4,4 C 4,4 C 95 % 1005,6 hPa 0,0 l/m 0 min 0 min 35 W/m 6,4 km/h (2 Bft) 100,00 %
27.10.2018 09:50 4,6 C 4,4 C 4,4 C 95 % 1005,6 hPa 0,0 l/m 0 min 0 min 35 W/m 6,4 km/h (2 Bft) 95,74 %
27.10.2018 09:52 4,6 C 4,4 C 4,4 C 95 % 1005,6 hPa 0,0 l/m 0 min 0 min 35 W/m 9,7 km/h (2 Bft) 95,65 %
27.10.2018 09:54 4,6 C 4,4 C 4,4 C 95 % 1005,5 hPa 0,0 l/m 0 min 0 min 35 W/m 6,4 km/h (2 Bft) 97,87 %
27.10.2018 09:56 4,6 C 4,4 C 4,4 C 95 % 1005,5 hPa 0,0 l/m 0 min 0 min 35 W/m 9,7 km/h (2 Bft) 97,87 %
27.10.2018 09:58 4,6 C 5,0 C 4,4 C 95 % 1005,5 hPa 0,0 l/m 0 min 0 min 37 W/m 16,1 km/h (3 Bft) 97,87 %
27.10.2018 10:00 4,7 C 5,0 C 4,4 C 95 % 1005,5 hPa 0,0 l/m 0 min 0 min 39 W/m 16,1 km/h (3 Bft) 95,74 %
27.10.2018 10:02 4,7 C 5,0 C 4,4 C 95 % 1005,5 hPa 0,0 l/m 0 min 0 min 38 W/m 6,4 km/h (2 Bft) 97,83 %
27.10.2018 10:04 4,7 C 5,0 C 4,4 C 95 % 1005,5 hPa 0,0 l/m 0 min 0 min 37 W/m 9,7 km/h (2 Bft) 97,87 %
27.10.2018 10:08 4,8 C 5,0 C 5,0 C 95 % 1005,6 hPa 0,0 l/m 0 min 0 min 39 W/m 6,4 km/h (2 Bft) 96,81 %
27.10.2018 10:10 4,8 C 5,0 C 5,0 C 95 % 1005,6 hPa 0,0 l/m 0 min 0 min 40 W/m 6,4 km/h (2 Bft) 97,87 %
27.10.2018 10:12 4,8 C 5,0 C 5,0 C 96 % 1005,6 hPa 0,0 l/m 0 min 0 min 41 W/m 6,4 km/h (2 Bft) 97,87 %
27.10.2018 10:14 4,9 C 5,0 C 5,0 C 96 % 1005,6 hPa 0,0 l/m 0 min 0 min 40 W/m 12,9 km/h (3 Bft) 97,83 %
27.10.2018 10:16 4,9 C 5,0 C 5,0 C 96 % 1005,6 hPa 0,0 l/m 0 min 0 min 41 W/m 9,7 km/h (2 Bft) 95,74 %
27.10.2018 10:18 4,9 C 5,6 C 5,0 C 96 % 1005,7 hPa 0,0 l/m 0 min 0 min 46 W/m 12,9 km/h (3 Bft) 97,87 %
27.10.2018 10:20 5,0 C 5,6 C 5,0 C 96 % 1005,6 hPa 0,0 l/m 0 min 0 min 51 W/m 9,7 km/h (2 Bft) 93,62 %
27.10.2018 10:22 5,0 C 5,6 C 5,0 C 96 % 1005,6 hPa 0,0 l/m 0 min 0 min 53 W/m 6,4 km/h (2 Bft) 97,87 %
27.10.2018 10:24 5,1 C 5,6 C 5,0 C 96 % 1005,7 hPa 0,0 l/m 0 min 0 min 54 W/m 3,2 km/h (1 Bft) 95,74 %
27.10.2018 10:26 5,1 C 5,6 C 5,0 C 96 % 1005,7 hPa 0,0 l/m 0 min 0 min 79 W/m 9,7 km/h (2 Bft) 95,65 %
27.10.2018 10:28 5,1 C 6,1 C 5,0 C 96 % 1005,8 hPa 0,0 l/m 0 min 0 min 76 W/m 9,7 km/h (2 Bft) 95,74 %
27.10.2018 10:30 5,2 C 6,1 C 5,0 C 96 % 1005,8 hPa 0,0 l/m 0 min 0 min 81 W/m 6,4 km/h (2 Bft) 97,87 %
27.10.2018 10:32 5,2 C 6,1 C 5,0 C 96 % 1005,8 hPa 0,0 l/m 0 min 0 min 89 W/m 9,7 km/h (2 Bft) 97,87 %
27.10.2018 10:34 5,3 C 6,1 C 5,0 C 96 % 1005,8 hPa 0,0 l/m 0 min 0 min 85 W/m 9,7 km/h (2 Bft) 97,87 %
27.10.2018 10:38 5,4 C 6,1 C 5,6 C 96 % 1005,7 hPa 0,0 l/m 0 min 0 min 88 W/m 9,7 km/h (2 Bft) 95,70 %
27.10.2018 10:40 5,4 C 6,1 C 5,6 C 96 % 1005,7 hPa 0,0 l/m 0 min 0 min 139 W/m 12,9 km/h (3 Bft) 95,74 %
27.10.2018 10:42 5,4 C 6,1 C 5,6 C 96 % 1005,7 hPa 0,0 l/m 2 min 0 min 173 W/m 6,4 km/h (2 Bft) 97,87 %
27.10.2018 10:44 5,5 C 6,7 C 5,6 C 96 % 1005,7 hPa 0,0 l/m 0 min 0 min 142 W/m 6,4 km/h (2 Bft) 97,87 %
27.10.2018 10:46 5,6 C 7,2 C 5,6 C 96 % 1005,8 hPa 0,0 l/m 0 min 0 min 103 W/m 9,7 km/h (2 Bft) 95,45 %
27.10.2018 10:48 5,6 C 8,3 C 5,6 C 96 % 1005,8 hPa 0,0 l/m 0 min 0 min 126 W/m 9,7 km/h (2 Bft) 97,83 %
27.10.2018 10:50 5,7 C 8,3 C 5,6 C 96 % 1005,8 hPa 0,0 l/m 0 min 0 min 128 W/m 6,4 km/h (2 Bft) 97,87 %
27.10.2018 10:52 5,7 C 8,9 C 5,6 C 96 % 1005,9 hPa 0,0 l/m 0 min 0 min 153 W/m 16,1 km/h (3 Bft) 97,87 %
27.10.2018 10:54 5,8 C 9,4 C 5,6 C 96 % 1005,9 hPa 0,0 l/m 2 min 0 min 170 W/m 12,9 km/h (3 Bft) 97,14 %
27.10.2018 10:56 5,8 C 8,9 C 5,6 C 96 % 1005,8 hPa 0,0 l/m 2 min 0 min 176 W/m 9,7 km/h (2 Bft) 97,87 %
27.10.2018 10:58 5,9 C 8,3 C 5,6 C 96 % 1005,9 hPa 0,0 l/m 0 min 0 min 110 W/m 9,7 km/h (2 Bft) 97,87 %
27.10.2018 11:00 5,9 C 7,8 C 5,6 C 96 % 1006,0 hPa 0,0 l/m 0 min 0 min 96 W/m 9,7 km/h (2 Bft) 97,87 %
27.10.2018 11:02 5,9 C 7,2 C 5,6 C 96 % 1005,9 hPa 0,0 l/m 0 min 0 min 100 W/m 6,4 km/h (2 Bft) 98,31 %
27.10.2018 11:04 6,0 C 7,2 C 5,6 C 96 % 1006,0 hPa 0,0 l/m 0 min 0 min 101 W/m 6,4 km/h (2 Bft) 97,87 %
27.10.2018 11:08 6,1 C 7,2 C 5,6 C 95 % 1006,0 hPa 0,0 l/m 0 min 0 min 115 W/m 6,4 km/h (2 Bft) 97,56 %
27.10.2018 11:10 6,1 C 7,2 C 5,6 C 95 % 1006,0 hPa 0,0 l/m 0 min 0 min 84 W/m 6,4 km/h (2 Bft) 97,87 %
27.10.2018 11:12 6,1 C 6,7 C 5,6 C 95 % 1006,1 hPa 0,0 l/m 0 min 0 min 67 W/m 3,2 km/h (1 Bft) 95,74 %
27.10.2018 11:14 6,1 C 7,2 C 5,6 C 95 % 1006,0 hPa 0,0 l/m 0 min 0 min 68 W/m 6,4 km/h (2 Bft) 97,83 %
27.10.2018 11:16 6,1 C 7,8 C 5,6 C 95 % 1006,1 hPa 0,0 l/m 0 min 0 min 144 W/m 6,4 km/h (2 Bft) 97,87 %
27.10.2018 11:18 6,2 C 8,3 C 5,6 C 95 % 1006,1 hPa 0,0 l/m 0 min 0 min 128 W/m 6,4 km/h (2 Bft) 95,74 %
27.10.2018 11:20 6,2 C 7,8 C 5,6 C 95 % 1006,0 hPa 0,0 l/m 0 min 0 min 93 W/m 3,2 km/h (1 Bft) 98,31 %
27.10.2018 11:22 6,2 C 7,2 C 5,6 C 95 % 1006,1 hPa 0,0 l/m 0 min 0 min 85 W/m 3,2 km/h (1 Bft) 100,00 %
27.10.2018 11:24 6,2 C 8,3 C 5,6 C 95 % 1006,1 hPa 0,0 l/m 0 min 0 min 92 W/m 0,0 km/h (0 Bft) 100,00 %
27.10.2018 11:26 6,3 C 8,9 C 5,6 C 95 % 1006,1 hPa 0,0 l/m 0 min 0 min 138 W/m 9,7 km/h (2 Bft) 97,83 %
27.10.2018 11:28 6,3 C 10,6 C 5,6 C 95 % 1006,1 hPa 0,0 l/m 0 min 0 min 98 W/m 3,2 km/h (1 Bft) 100,00 %
27.10.2018 11:30 6,4 C 10,6 C 6,1 C 95 % 1006,1 hPa 0,0 l/m 0 min 0 min 135 W/m 3,2 km/h (1 Bft) 93,62 %
27.10.2018 11:32 6,4 C 10,0 C 6,1 C 95 % 1006,1 hPa 0,0 l/m 2 min 0 min 230 W/m 6,4 km/h (2 Bft) 97,87 %
27.10.2018 11:34 6,4 C 9,4 C 6,1 C 95 % 1006,2 hPa 0,0 l/m 0 min 0 min 157 W/m 3,2 km/h (1 Bft) 97,87 %
27.10.2018 11:38 6,6 C 11,1 C 6,1 C 95 % 1006,2 hPa 0,0 l/m 0 min 0 min 137 W/m 3,2 km/h (1 Bft) 95,70 %
27.10.2018 11:40 6,7 C 12,2 C 6,7 C 95 % 1006,2 hPa 0,0 l/m 0 min 0 min 136 W/m 6,4 km/h (2 Bft) 97,87 %
27.10.2018 11:42 6,8 C 13,3 C 6,7 C 95 % 1006,2 hPa 0,0 l/m 0 min 0 min 154 W/m 6,4 km/h (2 Bft) 97,87 %
27.10.2018 11:44 6,9 C 14,4 C 6,7 C 95 % 1006,2 hPa 0,0 l/m 0 min 0 min 130 W/m 6,4 km/h (2 Bft) 97,87 %
27.10.2018 11:46 7,0 C 15,0 C 6,7 C 95 % 1006,3 hPa 0,0 l/m 0 min 0 min 131 W/m 9,7 km/h (2 Bft) 97,87 %
27.10.2018 11:48 7,1 C 13,9 C 6,7 C 95 % 1006,2 hPa 0,0 l/m 0 min 0 min 106 W/m 3,2 km/h (1 Bft) 95,74 %
27.10.2018 11:50 7,2 C 12,8 C 6,7 C 95 % 1006,2 hPa 0,0 l/m 0 min 0 min 101 W/m 9,7 km/h (2 Bft) 98,28 %
27.10.2018 11:52 7,3 C 12,8 C 6,7 C 94 % 1006,1 hPa 0,0 l/m 0 min 0 min 183 W/m 6,4 km/h (2 Bft) 97,14 %
27.10.2018 11:54 7,3 C 13,3 C 6,7 C 94 % 1006,2 hPa 0,0 l/m 2 min 0 min 221 W/m 6,4 km/h (2 Bft) 97,87 %
27.10.2018 11:56 7,4 C 14,4 C 6,7 C 94 % 1006,2 hPa 0,0 l/m 2 min 0 min 242 W/m 6,4 km/h (2 Bft) 97,87 %
27.10.2018 11:58 7,6 C 15,0 C 6,7 C 94 % 1006,2 hPa 0,0 l/m 0 min 0 min 165 W/m 9,7 km/h (2 Bft) 97,87 %
27.10.2018 12:00 7,6 C 13,3 C 6,7 C 94 % 1006,2 hPa 0,0 l/m 0 min 0 min 101 W/m 12,9 km/h (3 Bft) 97,87 %
27.10.2018 12:02 7,7 C 11,7 C 6,7 C 94 % 1006,2 hPa 0,0 l/m 0 min 0 min 97 W/m 12,9 km/h (3 Bft) 100,00 %
27.10.2018 12:04 7,7 C 10,6 C 6,7 C 93 % 1006,2 hPa 0,0 l/m 0 min 0 min 85 W/m 9,7 km/h (2 Bft) 100,00 %
27.10.2018 12:08 7,8 C 12,8 C 6,7 C 92 % 1006,2 hPa 0,0 l/m 0 min 0 min 108 W/m 12,9 km/h (3 Bft) 98,94 %
27.10.2018 12:10 7,9 C 12,2 C 6,7 C 92 % 1006,2 hPa 0,0 l/m 0 min 0 min 98 W/m 12,9 km/h (3 Bft) 100,00 %
27.10.2018 12:12 7,9 C 11,7 C 6,7 C 92 % 1006,2 hPa 0,0 l/m 0 min 0 min 119 W/m 9,7 km/h (2 Bft) 100,00 %
27.10.2018 12:14 8,0 C 12,2 C 7,2 C 91 % 1006,2 hPa 0,0 l/m 0 min 0 min 143 W/m 9,7 km/h (2 Bft) 97,87 %
27.10.2018 12:16 8,1 C 13,3 C 7,2 C 91 % 1006,2 hPa 0,0 l/m 0 min 0 min 131 W/m 9,7 km/h (2 Bft) 97,87 %
27.10.2018 12:18 8,2 C 13,9 C 7,2 C 91 % 1006,1 hPa 0,0 l/m 0 min 0 min 102 W/m 9,7 km/h (2 Bft) 100,00 %
27.10.2018 12:20 8,2 C 13,3 C 7,2 C 90 % 1006,1 hPa 0,0 l/m 0 min 0 min 97 W/m 3,2 km/h (1 Bft) 100,00 %
27.10.2018 12:22 8,3 C 11,1 C 7,2 C 90 % 1006,2 hPa 0,0 l/m 0 min 0 min 91 W/m 6,4 km/h (2 Bft) 97,22 %
27.10.2018 12:24 8,3 C 11,1 C 7,2 C 89 % 1006,2 hPa 0,0 l/m 0 min 0 min 99 W/m 12,9 km/h (3 Bft) 100,00 %
27.10.2018 12:26 8,3 C 10,0 C 7,2 C 89 % 1006,1 hPa 0,0 l/m 0 min 0 min 101 W/m 12,9 km/h (3 Bft) 97,83 %
27.10.2018 12:28 8,4 C 9,4 C 7,2 C 89 % 1006,1 hPa 0,0 l/m 0 min 0 min 122 W/m 6,4 km/h (2 Bft) 100,00 %
27.10.2018 12:30 8,4 C 9,4 C 7,2 C 89 % 1006,2 hPa 0,0 l/m 0 min 0 min 144 W/m 6,4 km/h (2 Bft) 100,00 %
27.10.2018 12:32 8,4 C 10,0 C 7,2 C 88 % 1006,1 hPa 0,0 l/m 0 min 0 min 144 W/m 6,4 km/h (2 Bft) 100,00 %
27.10.2018 12:34 8,5 C 11,1 C 7,2 C 88 % 1006,1 hPa 0,0 l/m 2 min 0 min 237 W/m 6,4 km/h (2 Bft) 100,00 %
27.10.2018 12:38 8,6 C 11,1 C 7,8 C 88 % 1006,2 hPa 0,0 l/m 4 min 0 min 315 W/m 6,4 km/h (2 Bft) 100,00 %
27.10.2018 12:40 8,7 C 11,1 C 7,8 C 88 % 1006,3 hPa 0,0 l/m 2 min 0 min 447 W/m 6,4 km/h (2 Bft) 100,00 %
27.10.2018 12:42 8,7 C 11,1 C 7,8 C 88 % 1006,3 hPa 0,0 l/m 2 min 0 min 431 W/m 6,4 km/h (2 Bft) 100,00 %
27.10.2018 12:44 8,8 C 11,1 C 7,8 C 88 % 1006,3 hPa 0,0 l/m 2 min 0 min 375 W/m 6,4 km/h (2 Bft) 100,00 %
27.10.2018 12:46 8,8 C 10,6 C 7,8 C 87 % 1006,3 hPa 0,0 l/m 2 min 0 min 461 W/m 6,4 km/h (2 Bft) 97,92 %
27.10.2018 12:48 8,8 C 10,6 C 7,8 C 87 % 1006,4 hPa 0,0 l/m 2 min 0 min 496 W/m 9,7 km/h (2 Bft) 91,30 %
27.10.2018 12:50 8,9 C 10,0 C 7,8 C 87 % 1006,3 hPa 0,0 l/m 2 min 0 min 491 W/m 9,7 km/h (2 Bft) 79,66 %
27.10.2018 12:52 8,9 C 10,0 C 7,8 C 86 % 1006,3 hPa 0,0 l/m 2 min 0 min 477 W/m 6,4 km/h (2 Bft) 100,00 %
27.10.2018 12:54 9,0 C 10,0 C 7,8 C 86 % 1006,3 hPa 0,0 l/m 2 min 0 min 468 W/m 6,4 km/h (2 Bft) 97,87 %
27.10.2018 12:56 9,0 C 10,6 C 8,3 C 86 % 1006,3 hPa 0,0 l/m 2 min 0 min 429 W/m 9,7 km/h (2 Bft) 97,87 %
27.10.2018 12:58 9,1 C 10,6 C 8,3 C 86 % 1006,3 hPa 0,0 l/m 2 min 0 min 412 W/m 12,9 km/h (3 Bft) 97,87 %
27.10.2018 13:00 9,1 C 10,6 C 8,3 C 86 % 1006,3 hPa 0,0 l/m 2 min 0 min 422 W/m 9,7 km/h (2 Bft) 97,83 %
27.10.2018 13:02 9,1 C 10,0 C 8,3 C 85 % 1006,3 hPa 0,0 l/m 2 min 0 min 379 W/m 6,4 km/h (2 Bft) 97,87 %
27.10.2018 13:04 9,2 C 10,0 C 8,3 C 85 % 1006,3 hPa 0,0 l/m 2 min 0 min 371 W/m 6,4 km/h (2 Bft) 97,87 %
27.10.2018 13:08 9,3 C 10,6 C 8,3 C 85 % 1006,2 hPa 0,0 l/m 4 min 0 min 478 W/m 9,7 km/h (2 Bft) 97,87 %
27.10.2018 13:10 9,3 C 10,6 C 8,3 C 85 % 1006,2 hPa 0,0 l/m 2 min 0 min 345 W/m 9,7 km/h (2 Bft) 97,87 %
27.10.2018 13:12 9,3 C 10,6 C 8,3 C 84 % 1006,3 hPa 0,0 l/m 0 min 0 min 152 W/m 6,4 km/h (2 Bft) 97,83 %
27.10.2018 13:14 9,4 C 10,0 C 8,3 C 84 % 1006,2 hPa 0,0 l/m 0 min 0 min 155 W/m 9,7 km/h (2 Bft) 97,87 %
27.10.2018 13:16 9,4 C 10,0 C 8,3 C 84 % 1006,3 hPa 0,0 l/m 0 min 0 min 165 W/m 6,4 km/h (2 Bft) 93,62 %
27.10.2018 13:18 9,4 C 9,4 C 7,8 C 84 % 1006,3 hPa 0,0 l/m 0 min 0 min 175 W/m 6,4 km/h (2 Bft) 97,87 %
27.10.2018 13:20 9,4 C 10,0 C 7,8 C 83 % 1006,3 hPa 0,0 l/m 0 min 0 min 188 W/m 6,4 km/h (2 Bft) 97,87 %
27.10.2018 13:22 9,4 C 10,0 C 8,3 C 83 % 1006,3 hPa 0,0 l/m 2 min 0 min 483 W/m 6,4 km/h (2 Bft) 97,83 %
27.10.2018 13:24 9,4 C 10,0 C 8,3 C 84 % 1006,3 hPa 0,0 l/m 2 min 0 min 476 W/m 6,4 km/h (2 Bft) 97,87 %
27.10.2018 13:26 9,5 C 10,0 C 8,3 C 83 % 1006,3 hPa 0,0 l/m 0 min 0 min 209 W/m 6,4 km/h (2 Bft) 97,87 %
27.10.2018 13:28 9,5 C 10,0 C 8,3 C 83 % 1006,3 hPa 0,0 l/m 2 min 0 min 462 W/m 6,4 km/h (2 Bft) 97,87 %
27.10.2018 13:30 9,6 C 10,0 C 8,3 C 83 % 1006,3 hPa 0,0 l/m 2 min 0 min 476 W/m 6,4 km/h (2 Bft) 95,74 %
27.10.2018 13:32 9,6 C 10,0 C 8,3 C 83 % 1006,4 hPa 0,0 l/m 2 min 0 min 462 W/m 3,2 km/h (1 Bft) 97,87 %
27.10.2018 13:34 9,6 C 10,0 C 8,3 C 83 % 1006,4 hPa 0,0 l/m 2 min 0 min 429 W/m 6,4 km/h (2 Bft) 95,65 %
27.10.2018 13:38 9,7 C 10,0 C 8,3 C 82 % 1006,3 hPa 0,0 l/m 4 min 0 min 375 W/m 16,1 km/h (3 Bft) 96,81 %
27.10.2018 13:40 9,7 C 10,0 C 8,3 C 82 % 1006,3 hPa 0,0 l/m 2 min 0 min 308 W/m 9,7 km/h (2 Bft) 95,74 %
27.10.2018 13:42 9,7 C 10,0 C 8,3 C 82 % 1006,4 hPa 0,0 l/m 0 min 0 min 150 W/m 9,7 km/h (2 Bft) 97,87 %
27.10.2018 13:44 9,7 C 10,0 C 8,3 C 82 % 1006,3 hPa 0,0 l/m 0 min 0 min 147 W/m 6,4 km/h (2 Bft) 95,74 %
27.10.2018 13:46 9,7 C 10,0 C 8,3 C 81 % 1006,3 hPa 0,0 l/m 0 min 0 min 148 W/m 6,4 km/h (2 Bft) 93,48 %
27.10.2018 13:48 9,7 C 10,0 C 8,3 C 81 % 1006,3 hPa 0,0 l/m 0 min 0 min 137 W/m 6,4 km/h (2 Bft) 95,74 %
27.10.2018 13:50 9,7 C 9,4 C 8,3 C 81 % 1006,3 hPa 0,0 l/m 0 min 0 min 152 W/m 6,4 km/h (2 Bft) 95,74 %
27.10.2018 13:52 9,7 C 10,0 C 8,3 C 81 % 1006,4 hPa 0,0 l/m 0 min 0 min 164 W/m 9,7 km/h (2 Bft) 95,74 %
27.10.2018 13:54 9,7 C 9,4 C 8,3 C 81 % 1006,4 hPa 0,0 l/m 0 min 0 min 160 W/m 6,4 km/h (2 Bft) 95,74 %
27.10.2018 13:56 9,7 C 10,0 C 8,3 C 81 % 1006,4 hPa 0,0 l/m 0 min 0 min 157 W/m 3,2 km/h (1 Bft) 93,62 %
27.10.2018 13:58 9,7 C 10,0 C 8,3 C 81 % 1006,4 hPa 0,0 l/m 0 min 0 min 158 W/m 9,7 km/h (2 Bft) 93,48 %
27.10.2018 14:00 9,7 C 9,4 C 8,3 C 81 % 1006,4 hPa 0,0 l/m 0 min 0 min 151 W/m 6,4 km/h (2 Bft) 93,62 %
27.10.2018 14:02 9,7 C 9,4 C 8,3 C 81 % 1006,5 hPa 0,0 l/m 0 min 0 min 117 W/m 6,4 km/h (2 Bft) 93,62 %
27.10.2018 14:04 9,7 C 9,4 C 8,3 C 81 % 1006,5 hPa 0,0 l/m 0 min 0 min 102 W/m 3,2 km/h (1 Bft) 93,62 %
27.10.2018 14:08 9,7 C 9,4 C 8,3 C 81 % 1006,6 hPa 0,0 l/m 0 min 0 min 120 W/m 6,4 km/h (2 Bft) 93,62 %
27.10.2018 14:10 9,7 C 9,4 C 8,3 C 81 % 1006,6 hPa 0,0 l/m 0 min 0 min 140 W/m 6,4 km/h (2 Bft) 95,65 %
27.10.2018 14:12 9,7 C 9,4 C 8,3 C 81 % 1006,6 hPa 0,0 l/m 0 min 0 min 170 W/m 3,2 km/h (1 Bft) 95,74 %
27.10.2018 14:14 9,7 C 9,4 C 8,3 C 81 % 1006,5 hPa 0,0 l/m 0 min 0 min 157 W/m 3,2 km/h (1 Bft) 95,74 %
27.10.2018 14:16 9,7 C 9,4 C 8,3 C 81 % 1006,6 hPa 0,0 l/m 0 min 0 min 142 W/m 6,4 km/h (2 Bft) 95,74 %
27.10.2018 14:18 9,7 C 9,4 C 8,3 C 81 % 1006,7 hPa 0,0 l/m 0 min 0 min 118 W/m 9,7 km/h (2 Bft) 93,62 %
27.10.2018 14:20 9,7 C 9,4 C 8,3 C 81 % 1006,7 hPa 0,0 l/m 0 min 0 min 104 W/m 6,4 km/h (2 Bft) 95,74 %
27.10.2018 14:22 9,6 C 9,4 C 8,3 C 81 % 1006,6 hPa 0,0 l/m 0 min 0 min 99 W/m 6,4 km/h (2 Bft) 95,65 %
27.10.2018 14:24 9,6 C 9,4 C 8,3 C 81 % 1006,6 hPa 0,0 l/m 0 min 0 min 99 W/m 9,7 km/h (2 Bft) 94,34 %
27.10.2018 14:26 9,6 C 9,4 C 8,3 C 81 % 1006,6 hPa 0,0 l/m 0 min 0 min 95 W/m 6,4 km/h (2 Bft) 93,62 %
27.10.2018 14:28 9,6 C 9,4 C 8,3 C 81 % 1006,6 hPa 0,0 l/m 0 min 0 min 94 W/m 6,4 km/h (2 Bft) 95,74 %
27.10.2018 14:30 9,6 C 9,4 C 8,3 C 81 % 1006,5 hPa 0,0 l/m 0 min 0 min 85 W/m 3,2 km/h (1 Bft) 91,49 %
27.10.2018 14:32 9,6 C 9,4 C 8,3 C 81 % 1006,5 hPa 0,0 l/m 0 min 0 min 90 W/m 3,2 km/h (1 Bft) 97,87 %
27.10.2018 14:34 9,6 C 8,9 C 8,3 C 81 % 1006,5 hPa 0,0 l/m 0 min 0 min 89 W/m 6,4 km/h (2 Bft) 97,83 %
27.10.2018 14:38 9,6 C 9,4 C 8,3 C 81 % 1006,5 hPa 0,0 l/m 0 min 0 min 104 W/m 12,9 km/h (3 Bft) 96,81 %
27.10.2018 14:40 9,6 C 9,4 C 8,3 C 81 % 1006,6 hPa 0,0 l/m 0 min 0 min 122 W/m 9,7 km/h (2 Bft) 97,87 %
27.10.2018 14:42 9,6 C 9,4 C 8,3 C 81 % 1006,6 hPa 0,0 l/m 0 min 0 min 123 W/m 9,7 km/h (2 Bft) 100,00 %
27.10.2018 14:44 9,6 C 9,4 C 8,9 C 81 % 1006,6 hPa 0,0 l/m 0 min 0 min 144 W/m 9,7 km/h (2 Bft) 100,00 %
27.10.2018 14:46 9,6 C 9,4 C 8,9 C 81 % 1006,6 hPa 0,0 l/m 0 min 0 min 151 W/m 6,4 km/h (2 Bft) 100,00 %
27.10.2018 14:48 9,6 C 9,4 C 8,9 C 81 % 1006,6 hPa 0,0 l/m 0 min 0 min 161 W/m 12,9 km/h (3 Bft) 97,87 %
27.10.2018 14:50 9,6 C 9,4 C 8,9 C 81 % 1006,6 hPa 0,0 l/m 0 min 0 min 166 W/m 6,4 km/h (2 Bft) 100,00 %
27.10.2018 14:52 9,6 C 10,0 C 8,9 C 81 % 1006,6 hPa 0,0 l/m 0 min 0 min 178 W/m 12,9 km/h (3 Bft) 100,00 %
27.10.2018 14:54 9,6 C 10,0 C 8,9 C 81 % 1006,5 hPa 0,0 l/m 0 min 0 min 185 W/m 9,7 km/h (2 Bft) 100,00 %
27.10.2018 14:56 9,7 C 10,0 C 8,9 C 81 % 1006,5 hPa 0,0 l/m 0 min 0 min 186 W/m 6,4 km/h (2 Bft) 97,87 %
27.10.2018 14:58 9,7 C 10,0 C 8,9 C 81 % 1006,4 hPa 0,0 l/m 2 min 0 min 191 W/m 3,2 km/h (1 Bft) 100,00 %
27.10.2018 15:00 9,7 C 10,0 C 8,9 C 81 % 1006,5 hPa 0,0 l/m 2 min 0 min 194 W/m 9,7 km/h (2 Bft) 100,00 %
27.10.2018 15:02 9,7 C 10,0 C 8,9 C 81 % 1006,5 hPa 0,0 l/m 2 min 0 min 256 W/m 6,4 km/h (2 Bft) 100,00 %
27.10.2018 15:04 9,7 C 10,6 C 8,9 C 81 % 1006,5 hPa 0,0 l/m 2 min 0 min 258 W/m 6,4 km/h (2 Bft) 100,00 %
27.10.2018 15:08 9,8 C 10,6 C 8,9 C 80 % 1006,5 hPa 0,0 l/m 4 min 0 min 205 W/m 9,7 km/h (2 Bft) 100,00 %
27.10.2018 15:10 9,8 C 10,6 C 8,9 C 80 % 1006,4 hPa 0,0 l/m 2 min 0 min 191 W/m 6,4 km/h (2 Bft) 100,00 %
27.10.2018 15:12 9,8 C 10,6 C 9,4 C 81 % 1006,4 hPa 0,0 l/m 2 min 0 min 187 W/m 6,4 km/h (2 Bft) 95,74 %
27.10.2018 15:14 9,9 C 10,6 C 9,4 C 81 % 1006,4 hPa 0,0 l/m 2 min 0 min 240 W/m 9,7 km/h (2 Bft) 100,00 %
27.10.2018 15:16 9,9 C 10,6 C 9,4 C 81 % 1006,3 hPa 0,0 l/m 2 min 0 min 368 W/m 9,7 km/h (2 Bft) 100,00 %
27.10.2018 15:18 10,0 C 11,1 C 9,4 C 81 % 1006,3 hPa 0,0 l/m 2 min 0 min 385 W/m 9,7 km/h (2 Bft) 100,00 %
27.10.2018 15:20 10,1 C 11,1 C 9,4 C 81 % 1006,3 hPa 0,0 l/m 2 min 0 min 303 W/m 12,9 km/h (3 Bft) 100,00 %
27.10.2018 15:22 10,1 C 11,1 C 9,4 C 81 % 1006,3 hPa 0,0 l/m 2 min 0 min 420 W/m 9,7 km/h (2 Bft) 100,00 %
27.10.2018 15:24 10,2 C 11,1 C 9,4 C 80 % 1006,3 hPa 0,0 l/m 2 min 0 min 441 W/m 6,4 km/h (2 Bft) 100,00 %
27.10.2018 15:26 10,2 C 11,1 C 9,4 C 80 % 1006,3 hPa 0,0 l/m 2 min 0 min 287 W/m 6,4 km/h (2 Bft) 100,00 %
27.10.2018 15:28 10,3 C 11,1 C 9,4 C 80 % 1006,2 hPa 0,0 l/m 2 min 0 min 248 W/m 6,4 km/h (2 Bft) 100,00 %
27.10.2018 15:30 10,3 C 10,6 C 9,4 C 80 % 1006,2 hPa 0,0 l/m 2 min 0 min 309 W/m 6,4 km/h (2 Bft) 100,00 %
27.10.2018 15:32 10,3 C 10,6 C 9,4 C 79 % 1006,2 hPa 0,0 l/m 2 min 0 min 384 W/m 6,4 km/h (2 Bft) 100,00 %
27.10.2018 15:34 10,3 C 10,6 C 9,4 C 79 % 1006,3 hPa 0,0 l/m 2 min 0 min 398 W/m 6,4 km/h (2 Bft) 100,00 %
27.10.2018 15:38 10,4 C 10,6 C 9,4 C 79 % 1006,3 hPa 0,0 l/m 4 min 0 min 212 W/m 6,4 km/h (2 Bft) 100,00 %
27.10.2018 15:40 10,4 C 10,6 C 9,4 C 79 % 1006,3 hPa 0,0 l/m 0 min 0 min 137 W/m 9,7 km/h (2 Bft) 100,00 %
27.10.2018 15:42 10,4 C 10,6 C 9,4 C 79 % 1006,3 hPa 0,0 l/m 0 min 0 min 147 W/m 6,4 km/h (2 Bft) 100,00 %
27.10.2018 15:44 10,4 C 10,0 C 9,4 C 79 % 1006,4 hPa 0,0 l/m 0 min 0 min 143 W/m 9,7 km/h (2 Bft) 100,00 %
27.10.2018 15:46 10,4 C 10,0 C 8,9 C 78 % 1006,4 hPa 0,0 l/m 0 min 0 min 133 W/m 9,7 km/h (2 Bft) 97,87 %
27.10.2018 15:48 10,4 C 10,0 C 8,9 C 78 % 1006,4 hPa 0,0 l/m 0 min 0 min 123 W/m 6,4 km/h (2 Bft) 100,00 %
27.10.2018 15:50 10,4 C 10,0 C 8,9 C 79 % 1006,4 hPa 0,0 l/m 0 min 0 min 130 W/m 9,7 km/h (2 Bft) 100,00 %
27.10.2018 15:52 10,3 C 10,0 C 8,9 C 78 % 1006,4 hPa 0,0 l/m 0 min 0 min 124 W/m 6,4 km/h (2 Bft) 100,00 %
27.10.2018 15:54 10,3 C 10,0 C 8,9 C 79 % 1006,4 hPa 0,0 l/m 0 min 0 min 121 W/m 6,4 km/h (2 Bft) 100,00 %
27.10.2018 15:56 10,3 C 10,0 C 8,9 C 79 % 1006,4 hPa 0,0 l/m 0 min 0 min 138 W/m 9,7 km/h (2 Bft) 100,00 %
27.10.2018 15:58 10,3 C 10,0 C 8,9 C 79 % 1006,5 hPa 0,0 l/m 0 min 0 min 140 W/m 9,7 km/h (2 Bft) 100,00 %
27.10.2018 16:00 10,3 C 10,0 C 9,4 C 79 % 1006,5 hPa 0,0 l/m 2 min 0 min 154 W/m 6,4 km/h (2 Bft) 97,87 %
27.10.2018 16:02 10,3 C 10,0 C 8,9 C 79 % 1006,5 hPa 0,0 l/m 0 min 0 min 142 W/m 9,7 km/h (2 Bft) 100,00 %
27.10.2018 16:04 10,3 C 10,0 C 8,9 C 79 % 1006,5 hPa 0,0 l/m 0 min 0 min 128 W/m 6,4 km/h (2 Bft) 100,00 %
27.10.2018 16:08 10,3 C 10,0 C 8,9 C 79 % 1006,5 hPa 0,0 l/m 0 min 0 min 111 W/m 6,4 km/h (2 Bft) 100,00 %
27.10.2018 16:10 10,3 C 10,0 C 8,9 C 79 % 1006,5 hPa 0,0 l/m 0 min 0 min 119 W/m 9,7 km/h (2 Bft) 97,87 %
27.10.2018 16:12 10,3 C 10,0 C 8,9 C 79 % 1006,6 hPa 0,0 l/m 0 min 0 min 128 W/m 3,2 km/h (1 Bft) 95,74 %
27.10.2018 16:14 10,2 C 10,0 C 8,9 C 79 % 1006,6 hPa 0,0 l/m 2 min 0 min 140 W/m 6,4 km/h (2 Bft) 97,87 %
27.10.2018 16:16 10,2 C 10,0 C 8,9 C 79 % 1006,6 hPa 0,0 l/m 2 min 0 min 141 W/m 6,4 km/h (2 Bft) 97,87 %
27.10.2018 16:18 10,2 C 10,0 C 8,9 C 79 % 1006,6 hPa 0,0 l/m 2 min 0 min 137 W/m 3,2 km/h (1 Bft) 97,83 %
27.10.2018 16:20 10,2 C 10,0 C 8,9 C 79 % 1006,6 hPa 0,0 l/m 2 min 0 min 140 W/m 6,4 km/h (2 Bft) 95,74 %
27.10.2018 16:22 10,2 C 10,0 C 8,9 C 79 % 1006,6 hPa 0,0 l/m 2 min 0 min 211 W/m 9,7 km/h (2 Bft) 95,74 %
27.10.2018 16:24 10,2 C 10,0 C 8,9 C 79 % 1006,7 hPa 0,0 l/m 2 min 0 min 188 W/m 6,4 km/h (2 Bft) 97,87 %
27.10.2018 16:26 10,2 C 9,4 C 8,9 C 79 % 1006,6 hPa 0,0 l/m 0 min 0 min 88 W/m 6,4 km/h (2 Bft) 95,74 %
27.10.2018 16:28 10,1 C 9,4 C 8,9 C 79 % 1006,7 hPa 0,0 l/m 0 min 0 min 72 W/m 6,4 km/h (2 Bft) 95,74 %
27.10.2018 16:30 10,1 C 9,4 C 8,9 C 79 % 1006,7 hPa 0,0 l/m 0 min 0 min 58 W/m 9,7 km/h (2 Bft) 95,65 %
27.10.2018 16:32 10,1 C 8,9 C 8,9 C 79 % 1006,7 hPa 0,0 l/m 0 min 0 min 47 W/m 9,7 km/h (2 Bft) 95,74 %
27.10.2018 16:34 10,0 C 8,9 C 8,3 C 79 % 1006,7 hPa 0,0 l/m 0 min 0 min 46 W/m 9,7 km/h (2 Bft) 95,74 %
27.10.2018 16:38 9,9 C 8,3 C 8,3 C 79 % 1006,8 hPa 0,0 l/m 0 min 0 min 37 W/m 9,7 km/h (2 Bft) 92,55 %
27.10.2018 16:40 9,8 C 8,3 C 8,3 C 79 % 1006,8 hPa 0,0 l/m 0 min 0 min 34 W/m 6,4 km/h (2 Bft) 93,62 %
27.10.2018 16:42 9,8 C 8,3 C 8,3 C 79 % 1006,8 hPa 0,0 l/m 0 min 0 min 35 W/m 12,9 km/h (3 Bft) 93,48 %
27.10.2018 16:44 9,7 C 8,3 C 8,3 C 79 % 1006,8 hPa 0,0 l/m 0 min 0 min 37 W/m 6,4 km/h (2 Bft) 93,62 %
27.10.2018 16:46 9,7 C 8,3 C 8,3 C 79 % 1006,8 hPa 0,0 l/m 0 min 0 min 38 W/m 9,7 km/h (2 Bft) 93,62 %
27.10.2018 16:48 9,6 C 8,3 C 8,3 C 79 % 1006,9 hPa 0,0 l/m 0 min 0 min 37 W/m 6,4 km/h (2 Bft) 93,62 %
27.10.2018 16:50 9,5 C 8,3 C 7,8 C 80 % 1006,9 hPa 0,0 l/m 0 min 0 min 36 W/m 9,7 km/h (2 Bft) 91,49 %
27.10.2018 16:52 9,4 C 8,3 C 7,8 C 80 % 1006,9 hPa 0,0 l/m 0 min 0 min 37 W/m 6,4 km/h (2 Bft) 93,62 %
27.10.2018 16:54 9,4 C 8,3 C 7,8 C 80 % 1006,9 hPa 0,0 l/m 0 min 0 min 37 W/m 9,7 km/h (2 Bft) 95,65 %
27.10.2018 16:56 9,4 C 8,3 C 7,8 C 80 % 1006,9 hPa 0,0 l/m 0 min 0 min 37 W/m 6,4 km/h (2 Bft) 91,49 %
27.10.2018 16:58 9,3 C 8,3 C 7,8 C 80 % 1007,0 hPa 0,0 l/m 0 min 0 min 43 W/m 9,7 km/h (2 Bft) 91,49 %
27.10.2018 17:00 9,3 C 8,3 C 7,8 C 80 % 1007,0 hPa 0,0 l/m 0 min 0 min 51 W/m 9,7 km/h (2 Bft) 93,62 %
27.10.2018 17:02 9,2 C 8,3 C 7,8 C 81 % 1007,1 hPa 0,0 l/m 0 min 0 min 56 W/m 6,4 km/h (2 Bft) 93,62 %
27.10.2018 17:04 9,2 C 8,3 C 7,8 C 81 % 1007,1 hPa 0,0 l/m 0 min 0 min 58 W/m 6,4 km/h (2 Bft) 95,74 %
27.10.2018 17:08 9,2 C 8,3 C 7,8 C 81 % 1007,1 hPa 0,0 l/m 0 min 0 min 54 W/m 6,4 km/h (2 Bft) 94,62 %
27.10.2018 17:10 9,1 C 8,3 C 7,8 C 81 % 1007,1 hPa 0,0 l/m 0 min 0 min 54 W/m 3,2 km/h (1 Bft) 93,62 %
27.10.2018 17:12 9,1 C 8,3 C 7,8 C 82 % 1007,0 hPa 0,0 l/m 0 min 0 min 55 W/m 6,4 km/h (2 Bft) 95,74 %
27.10.2018 17:14 9,1 C 8,3 C 7,8 C 82 % 1007,0 hPa 0,0 l/m 0 min 0 min 51 W/m 6,4 km/h (2 Bft) 93,62 %
27.10.2018 17:16 9,1 C 8,3 C 7,8 C 82 % 1007,0 hPa 0,0 l/m 0 min 0 min 44 W/m 6,4 km/h (2 Bft) 97,87 %
27.10.2018 17:18 9,1 C 8,3 C 7,8 C 82 % 1007,0 hPa 0,0 l/m 0 min 0 min 37 W/m 6,4 km/h (2 Bft) 97,83 %
27.10.2018 17:20 9,0 C 8,3 C 7,8 C 82 % 1007,1 hPa 0,0 l/m 0 min 0 min 33 W/m 6,4 km/h (2 Bft) 93,62 %
27.10.2018 17:22 9,0 C 8,3 C 7,8 C 82 % 1007,1 hPa 0,0 l/m 0 min 0 min 26 W/m 6,4 km/h (2 Bft) 97,87 %
27.10.2018 17:24 9,0 C 8,3 C 7,8 C 82 % 1007,1 hPa 0,0 l/m 0 min 0 min 21 W/m 6,4 km/h (2 Bft) 100,00 %
27.10.2018 17:26 8,9 C 8,3 C 7,8 C 82 % 1007,0 hPa 0,0 l/m 0 min 0 min 19 W/m 6,4 km/h (2 Bft) 97,87 %
27.10.2018 17:28 8,9 C 7,8 C 7,8 C 82 % 1007,0 hPa 0,0 l/m 0 min 0 min 18 W/m 6,4 km/h (2 Bft) 97,87 %
27.10.2018 17:30 8,9 C 7,8 C 7,8 C 83 % 1007,0 hPa 0,0 l/m 0 min 0 min 17 W/m 6,4 km/h (2 Bft) 95,65 %
27.10.2018 17:32 8,9 C 7,8 C 7,8 C 83 % 1007,0 hPa 0,0 l/m 0 min 0 min 16 W/m 6,4 km/h (2 Bft) 100,00 %
27.10.2018 17:34 8,8 C 7,8 C 7,8 C 83 % 1007,1 hPa 0,0 l/m 0 min 0 min 16 W/m 9,7 km/h (2 Bft) 100,00 %
27.10.2018 17:38 8,8 C 7,8 C 7,8 C 83 % 1007,2 hPa 0,0 l/m 0 min 0 min 16 W/m 9,7 km/h (2 Bft) 100,00 %
27.10.2018 17:40 8,8 C 7,8 C 7,8 C 83 % 1007,1 hPa 0,0 l/m 0 min 0 min 16 W/m 6,4 km/h (2 Bft) 100,00 %
27.10.2018 17:42 8,7 C 7,8 C 7,8 C 83 % 1007,3 hPa 0,0 l/m 0 min 0 min 16 W/m 6,4 km/h (2 Bft) 100,00 %
27.10.2018 17:44 8,7 C 7,8 C 7,8 C 83 % 1007,3 hPa 0,0 l/m 0 min 0 min 16 W/m 3,2 km/h (1 Bft) 100,00 %
27.10.2018 17:46 8,7 C 7,8 C 7,2 C 82 % 1007,4 hPa 0,0 l/m 0 min 0 min 16 W/m 3,2 km/h (1 Bft) 97,87 %
27.10.2018 17:48 8,7 C 7,8 C 7,2 C 82 % 1007,5 hPa 0,0 l/m 0 min 0 min 16 W/m 6,4 km/h (2 Bft) 100,00 %
27.10.2018 17:50 8,7 C 7,8 C 7,2 C 83 % 1007,6 hPa 0,0 l/m 0 min 0 min 15 W/m 3,2 km/h (1 Bft) 100,00 %
27.10.2018 17:52 8,6 C 7,8 C 7,2 C 83 % 1007,5 hPa 0,0 l/m 0 min 0 min 14 W/m 3,2 km/h (1 Bft) 97,83 %
27.10.2018 17:54 8,6 C 7,2 C 7,2 C 83 % 1007,5 hPa 0,0 l/m 0 min 0 min 14 W/m 3,2 km/h (1 Bft) 100,00 %
27.10.2018 17:56 8,6 C 7,2 C 7,2 C 83 % 1007,6 hPa 0,0 l/m 0 min 0 min 13 W/m 3,2 km/h (1 Bft) 95,74 %
27.10.2018 17:58 8,6 C 7,2 C 7,2 C 83 % 1007,6 hPa 0,0 l/m 0 min 0 min 12 W/m 3,2 km/h (1 Bft) 100,00 %
27.10.2018 18:00 8,6 C 7,2 C 7,2 C 83 % 1007,6 hPa 0,0 l/m 0 min 0 min 11 W/m 3,2 km/h (1 Bft) 100,00 %
27.10.2018 18:02 8,5 C 7,2 C 7,2 C 83 % 1007,5 hPa 0,0 l/m 0 min 0 min 9 W/m 3,2 km/h (1 Bft) 97,87 %
27.10.2018 18:04 8,4 C 7,2 C 6,7 C 83 % 1007,6 hPa 0,0 l/m 0 min 0 min 9 W/m 3,2 km/h (1 Bft) 97,83 %
27.10.2018 18:08 8,4 C 7,2 C 6,7 C 83 % 1007,6 hPa 0,0 l/m 0 min 0 min 8 W/m 3,2 km/h (1 Bft) 98,94 %
27.10.2018 18:10 8,4 C 7,2 C 6,7 C 83 % 1007,6 hPa 0,0 l/m 0 min 0 min 7 W/m 3,2 km/h (1 Bft) 100,00 %
27.10.2018 18:12 8,3 C 7,2 C 6,7 C 83 % 1007,6 hPa 0,0 l/m 0 min 0 min 7 W/m 0,0 km/h (0 Bft) 100,00 %
27.10.2018 18:14 8,3 C 7,2 C 6,7 C 83 % 1007,5 hPa 0,0 l/m 0 min 0 min 5 W/m 0,0 km/h (0 Bft) 100,00 %
27.10.2018 18:16 8,3 C 6,7 C 6,7 C 83 % 1007,5 hPa 0,0 l/m 0 min 0 min 5 W/m 0,0 km/h (0 Bft) 95,65 %
27.10.2018 18:18 8,2 C 6,7 C 6,7 C 83 % 1007,7 hPa 0,0 l/m 0 min 0 min 5 W/m 0,0 km/h (0 Bft) 100,00 %
27.10.2018 18:20 8,2 C 6,7 C 6,7 C 84 % 1007,7 hPa 0,0 l/m 0 min 0 min 5 W/m 0,0 km/h (0 Bft) 100,00 %
27.10.2018 18:22 8,2 C 7,2 C 6,7 C 84 % 1007,7 hPa 0,0 l/m 0 min 0 min 4 W/m 0,0 km/h (0 Bft) 100,00 %
27.10.2018 18:24 8,2 C 7,2 C 6,7 C 84 % 1007,6 hPa 0,0 l/m 0 min 0 min 0 W/m 0,0 km/h (0 Bft) 100,00 %
27.10.2018 18:26 8,1 C 7,2 C 6,7 C 84 % 1007,6 hPa 0,0 l/m 0 min 0 min 0 W/m 0,0 km/h (0 Bft) 100,00 %
27.10.2018 18:28 8,1 C 7,2 C 6,7 C 84 % 1007,8 hPa 0,0 l/m 0 min 0 min 0 W/m 0,0 km/h (0 Bft) 100,00 %
27.10.2018 18:30 8,1 C 7,2 C 6,7 C 84 % 1007,8 hPa 0,0 l/m 0 min 0 min 0 W/m 0,0 km/h (0 Bft) 100,00 %
27.10.2018 18:32 8,1 C 7,2 C 6,7 C 84 % 1007,7 hPa 0,0 l/m 0 min 0 min 0 W/m 9,7 km/h (2 Bft) 97,87 %
27.10.2018 18:34 8,0 C 7,2 C 7,2 C 84 % 1007,7 hPa 0,0 l/m 0 min 0 min 0 W/m 6,4 km/h (2 Bft) 97,87 %
27.10.2018 18:38 7,9 C 7,2 C 7,2 C 85 % 1007,8 hPa 0,0 l/m 0 min 0 min 0 W/m 6,4 km/h (2 Bft) 98,92 %
27.10.2018 18:40 7,9 C 7,2 C 7,2 C 85 % 1007,9 hPa 0,0 l/m 0 min 0 min 0 W/m 0,0 km/h (0 Bft) 100,00 %
27.10.2018 18:42 7,9 C 7,2 C 7,2 C 85 % 1007,9 hPa 0,0 l/m 0 min 2 min 0 W/m 3,2 km/h (1 Bft) 100,00 %
27.10.2018 18:44 7,9 C 6,7 C 6,7 C 85 % 1008,0 hPa 0,0 l/m 0 min 2 min 0 W/m 3,2 km/h (1 Bft) 97,87 %
27.10.2018 18:46 7,9 C 6,1 C 6,7 C 85 % 1008,0 hPa 0,0 l/m 0 min 2 min 0 W/m 3,2 km/h (1 Bft) 97,87 %
27.10.2018 18:48 7,9 C 6,1 C 6,7 C 85 % 1008,0 hPa 0,2 l/m 0 min 2 min 0 W/m 3,2 km/h (1 Bft) 100,00 %
27.10.2018 18:50 7,9 C 6,1 C 6,1 C 85 % 1008,0 hPa 0,0 l/m 0 min 2 min 0 W/m 0,0 km/h (0 Bft) 100,00 %
27.10.2018 18:52 7,8 C 6,1 C 6,1 C 85 % 1008,1 hPa 0,0 l/m 0 min 2 min 0 W/m 0,0 km/h (0 Bft) 100,00 %
27.10.2018 18:54 7,8 C 6,1 C 6,1 C 86 % 1008,1 hPa 0,0 l/m 0 min 2 min 0 W/m 0,0 km/h (0 Bft) 100,00 %
27.10.2018 18:56 7,8 C 6,1 C 6,1 C 86 % 1008,1 hPa 0,2 l/m 0 min 2 min 0 W/m 0,0 km/h (0 Bft) 93,62 %
27.10.2018 18:58 7,8 C 6,1 C 6,1 C 86 % 1008,1 hPa 0,0 l/m 0 min 2 min 0 W/m 6,4 km/h (2 Bft) 100,00 %
27.10.2018 19:00 7,8 C 5,6 C 6,1 C 86 % 1008,1 hPa 0,0 l/m 0 min 2 min 0 W/m 6,4 km/h (2 Bft) 97,87 %
27.10.2018 19:02 7,8 C 6,1 C 6,1 C 86 % 1008,0 hPa 0,0 l/m 0 min 2 min 0 W/m 3,2 km/h (1 Bft) 97,83 %
27.10.2018 19:04 7,8 C 6,1 C 6,1 C 86 % 1008,1 hPa 0,0 l/m 0 min 2 min 0 W/m 3,2 km/h (1 Bft) 100,00 %
27.10.2018 19:08 7,8 C 5,6 C 5,6 C 87 % 1008,1 hPa 0,2 l/m 0 min 4 min 0 W/m 3,2 km/h (1 Bft) 96,81 %
27.10.2018 19:10 7,7 C 5,6 C 5,6 C 87 % 1008,1 hPa 0,0 l/m 0 min 2 min 0 W/m 0,0 km/h (0 Bft) 97,87 %
27.10.2018 19:12 7,7 C 5,6 C 5,6 C 87 % 1008,2 hPa 0,0 l/m 0 min 2 min 0 W/m 0,0 km/h (0 Bft) 93,62 %
27.10.2018 19:14 7,7 C 5,6 C 5,6 C 87 % 1008,1 hPa 0,0 l/m 0 min 2 min 0 W/m 0,0 km/h (0 Bft) 97,83 %
27.10.2018 19:16 7,7 C 5,6 C 5,6 C 88 % 1008,2 hPa 0,0 l/m 0 min 2 min 0 W/m 3,2 km/h (1 Bft) 100,00 %
27.10.2018 19:18 7,7 C 6,1 C 6,1 C 88 % 1008,2 hPa 0,0 l/m 0 min 2 min 0 W/m 3,2 km/h (1 Bft) 97,87 %
27.10.2018 19:20 7,7 C 6,1 C 5,6 C 88 % 1008,2 hPa 0,0 l/m 0 min 2 min 0 W/m 0,0 km/h (0 Bft) 97,87 %
27.10.2018 19:22 7,7 C 6,1 C 5,6 C 88 % 1008,3 hPa 0,0 l/m 0 min 2 min 0 W/m 0,0 km/h (0 Bft) 97,87 %
27.10.2018 19:24 7,6 C 6,1 C 5,6 C 89 % 1008,2 hPa 0,0 l/m 0 min 2 min 0 W/m 0,0 km/h (0 Bft) 97,87 %
27.10.2018 19:26 7,6 C 6,1 C 5,6 C 89 % 1008,3 hPa 0,0 l/m 0 min 0 min 0 W/m 0,0 km/h (0 Bft) 97,83 %
27.10.2018 19:28 7,6 C 6,1 C 5,6 C 89 % 1008,4 hPa 0,0 l/m 0 min 0 min 0 W/m 0,0 km/h (0 Bft) 93,62 %
27.10.2018 19:30 7,6 C 6,1 C 5,6 C 89 % 1008,4 hPa 0,0 l/m 0 min 0 min 0 W/m 0,0 km/h (0 Bft) 95,74 %
27.10.2018 19:32 7,6 C 6,1 C 5,6 C 89 % 1008,4 hPa 0,0 l/m 0 min 0 min 0 W/m 0,0 km/h (0 Bft) 91,49 %
27.10.2018 19:34 7,6 C 6,1 C 5,6 C 89 % 1008,4 hPa 0,0 l/m 0 min 0 min 0 W/m 0,0 km/h (0 Bft) 95,74 %
27.10.2018 19:38 7,5 C 6,1 C 5,6 C 90 % 1008,5 hPa 0,0 l/m 0 min 0 min 0 W/m 0,0 km/h (0 Bft) 95,70 %
27.10.2018 19:40 7,5 C 6,1 C 5,6 C 90 % 1008,5 hPa 0,0 l/m 0 min 0 min 0 W/m 0,0 km/h (0 Bft) 95,74 %
27.10.2018 19:42 7,4 C 6,1 C 5,6 C 90 % 1008,5 hPa 0,0 l/m 0 min 0 min 0 W/m 0,0 km/h (0 Bft) 93,62 %
27.10.2018 19:44 7,4 C 6,1 C 5,6 C 90 % 1008,5 hPa 0,0 l/m 0 min 0 min 0 W/m 0,0 km/h (0 Bft) 95,74 %
27.10.2018 19:46 7,4 C 6,1 C 5,6 C 90 % 1008,5 hPa 0,0 l/m 0 min 0 min 0 W/m 0,0 km/h (0 Bft) 97,87 %
27.10.2018 19:48 7,4 C 6,1 C 5,6 C 90 % 1008,6 hPa 0,0 l/m 0 min 0 min 0 W/m 0,0 km/h (0 Bft) 94,74 %
27.10.2018 19:50 7,4 C 6,1 C 5,6 C 90 % 1008,6 hPa 0,0 l/m 0 min 0 min 0 W/m 0,0 km/h (0 Bft) 94,83 %
27.10.2018 19:52 7,4 C 6,1 C 5,6 C 90 % 1008,6 hPa 0,0 l/m 0 min 0 min 0 W/m 0,0 km/h (0 Bft) 97,87 %
27.10.2018 19:54 7,3 C 6,1 C 5,6 C 90 % 1008,7 hPa 0,0 l/m 0 min 0 min 0 W/m 0,0 km/h (0 Bft) 97,30 %
27.10.2018 19:56 7,3 C 6,1 C 5,6 C 90 % 1008,7 hPa 0,0 l/m 0 min 0 min 0 W/m 0,0 km/h (0 Bft) 100,00 %
27.10.2018 19:58 7,3 C 6,1 C 5,6 C 90 % 1008,7 hPa 0,0 l/m 0 min 0 min 0 W/m 0,0 km/h (0 Bft) 94,44 %
27.10.2018 20:00 7,3 C 6,1 C 5,6 C 90 % 1008,7 hPa 0,0 l/m 0 min 0 min 0 W/m 0,0 km/h (0 Bft) 97,37 %
27.10.2018 20:02 7,3 C 6,1 C 5,6 C 90 % 1008,8 hPa 0,0 l/m 0 min 0 min 0 W/m 0,0 km/h (0 Bft) 95,83 %
27.10.2018 20:04 7,3 C 6,1 C 5,6 C 90 % 1008,8 hPa 0,0 l/m 0 min 0 min 0 W/m 0,0 km/h (0 Bft) 98,15 %
27.10.2018 20:08 7,3 C 6,1 C 5,6 C 90 % 1008,7 hPa 0,0 l/m 0 min 0 min 0 W/m 0,0 km/h (0 Bft) 96,47 %
27.10.2018 20:10 7,2 C 6,1 C 5,6 C 90 % 1008,8 hPa 0,0 l/m 0 min 0 min 0 W/m 0,0 km/h (0 Bft) 95,92 %
27.10.2018 20:12 7,2 C 6,1 C 5,6 C 90 % 1008,7 hPa 0,0 l/m 0 min 0 min 0 W/m 0,0 km/h (0 Bft) 95,74 %
27.10.2018 20:14 7,2 C 6,1 C 5,6 C 90 % 1008,8 hPa 0,0 l/m 0 min 0 min 0 W/m 0,0 km/h (0 Bft) 95,74 %
27.10.2018 20:16 7,2 C 6,1 C 5,6 C 90 % 1008,7 hPa 0,0 l/m 0 min 0 min 0 W/m 0,0 km/h (0 Bft) 93,62 %
27.10.2018 20:18 7,2 C 6,1 C 5,6 C 90 % 1008,8 hPa 0,0 l/m 0 min 0 min 0 W/m 0,0 km/h (0 Bft) 94,55 %
27.10.2018 20:20 7,2 C 6,1 C 5,6 C 90 % 1008,8 hPa 0,0 l/m 0 min 0 min 0 W/m 0,0 km/h (0 Bft) 97,37 %
27.10.2018 20:22 7,2 C 6,1 C 5,6 C 90 % 1008,8 hPa 0,0 l/m 0 min 0 min 0 W/m 0,0 km/h (0 Bft) 97,87 %
27.10.2018 20:24 7,2 C 6,1 C 5,6 C 91 % 1008,8 hPa 0,0 l/m 0 min 2 min 0 W/m 0,0 km/h (0 Bft) 95,74 %
27.10.2018 20:26 7,2 C 5,6 C 5,6 C 91 % 1008,8 hPa 0,0 l/m 0 min 0 min 0 W/m 0,0 km/h (0 Bft) 97,83 %
27.10.2018 20:28 7,1 C 5,6 C 6,1 C 91 % 1008,8 hPa 0,0 l/m 0 min 2 min 0 W/m 0,0 km/h (0 Bft) 95,83 %
27.10.2018 20:30 7,1 C 5,6 C 5,6 C 91 % 1008,8 hPa 0,0 l/m 0 min 2 min 0 W/m 0,0 km/h (0 Bft) 97,87 %
27.10.2018 20:32 7,1 C 5,6 C 5,6 C 91 % 1008,8 hPa 0,0 l/m 0 min 0 min 0 W/m 0,0 km/h (0 Bft) 98,18 %
27.10.2018 20:34 7,1 C 5,6 C 5,6 C 91 % 1008,8 hPa 0,0 l/m 0 min 0 min 0 W/m 0,0 km/h (0 Bft) 97,37 %
27.10.2018 20:38 7,1 C 5,6 C 5,6 C 91 % 1008,8 hPa 0,0 l/m 0 min 0 min 0 W/m 0,0 km/h (0 Bft) 96,77 %
27.10.2018 20:40 7,1 C 5,6 C 5,6 C 91 % 1008,9 hPa 0,0 l/m 0 min 0 min 0 W/m 0,0 km/h (0 Bft) 97,87 %
27.10.2018 20:42 7,1 C 5,6 C 5,6 C 91 % 1008,9 hPa 0,0 l/m 0 min 0 min 0 W/m 0,0 km/h (0 Bft) 95,83 %
27.10.2018 20:44 7,0 C 5,6 C 5,6 C 91 % 1008,9 hPa 0,0 l/m 0 min 0 min 0 W/m 0,0 km/h (0 Bft) 97,87 %
27.10.2018 20:46 7,0 C 5,6 C 5,6 C 91 % 1008,9 hPa 0,0 l/m 0 min 0 min 0 W/m 0,0 km/h (0 Bft) 98,15 %
27.10.2018 20:48 6,9 C 5,6 C 5,0 C 91 % 1008,9 hPa 0,0 l/m 0 min 0 min 0 W/m 0,0 km/h (0 Bft) 94,87 %
27.10.2018 20:50 6,9 C 5,6 C 5,6 C 91 % 1008,9 hPa 0,0 l/m 0 min 0 min 0 W/m 0,0 km/h (0 Bft) 97,87 %
27.10.2018 20:52 6,9 C 5,6 C 5,6 C 91 % 1008,9 hPa 0,0 l/m 0 min 0 min 0 W/m 0,0 km/h (0 Bft) 97,87 %
27.10.2018 20:54 6,9 C 5,6 C 5,6 C 91 % 1008,9 hPa 0,0 l/m 0 min 0 min 0 W/m 0,0 km/h (0 Bft) 97,87 %
27.10.2018 20:56 6,9 C 5,6 C 5,6 C 91 % 1008,9 hPa 0,0 l/m 0 min 0 min 0 W/m 0,0 km/h (0 Bft) 98,18 %
27.10.2018 20:58 6,9 C 5,6 C 5,6 C 91 % 1008,9 hPa 0,0 l/m 0 min 0 min 0 W/m 0,0 km/h (0 Bft) 97,83 %
27.10.2018 21:00 6,8 C 5,6 C 5,6 C 91 % 1008,9 hPa 0,0 l/m 0 min 0 min 0 W/m 0,0 km/h (0 Bft) 97,87 %
27.10.2018 21:02 6,8 C 5,6 C 5,6 C 91 % 1009,0 hPa 0,0 l/m 0 min 0 min 0 W/m 0,0 km/h (0 Bft) 97,37 %
27.10.2018 21:04 6,8 C 5,6 C 5,6 C 91 % 1009,1 hPa 0,0 l/m 0 min 0 min 0 W/m 9,7 km/h (2 Bft) 97,87 %
27.10.2018 21:08 6,8 C 5,6 C 5,6 C 92 % 1009,2 hPa 0,0 l/m 0 min 0 min 0 W/m 12,9 km/h (3 Bft) 95,74 %
27.10.2018 21:10 6,8 C 5,6 C 5,6 C 92 % 1009,3 hPa 0,0 l/m 0 min 0 min 0 W/m 3,2 km/h (1 Bft) 95,74 %
27.10.2018 21:12 6,7 C 5,6 C 5,6 C 92 % 1009,2 hPa 0,0 l/m 0 min 0 min 0 W/m 3,2 km/h (1 Bft) 93,48 %
27.10.2018 21:14 6,7 C 5,6 C 5,6 C 92 % 1009,2 hPa 0,0 l/m 0 min 0 min 0 W/m 3,2 km/h (1 Bft) 93,62 %
27.10.2018 21:16 6,7 C 5,6 C 5,6 C 92 % 1009,2 hPa 0,0 l/m 0 min 0 min 0 W/m 3,2 km/h (1 Bft) 93,88 %
27.10.2018 21:18 6,7 C 5,6 C 5,6 C 92 % 1009,3 hPa 0,0 l/m 0 min 0 min 0 W/m 0,0 km/h (0 Bft) 97,87 %
27.10.2018 21:20 6,7 C 5,6 C 5,6 C 92 % 1009,3 hPa 0,0 l/m 0 min 2 min 0 W/m 0,0 km/h (0 Bft) 95,74 %
27.10.2018 21:22 6,7 C 5,6 C 6,1 C 92 % 1009,3 hPa 0,0 l/m 0 min 2 min 0 W/m 0,0 km/h (0 Bft) 97,83 %
27.10.2018 21:24 6,7 C 5,6 C 6,1 C 92 % 1009,3 hPa 0,0 l/m 0 min 2 min 0 W/m 0,0 km/h (0 Bft) 95,74 %
27.10.2018 21:26 6,7 C 5,6 C 6,1 C 92 % 1009,3 hPa 0,0 l/m 0 min 2 min 0 W/m 0,0 km/h (0 Bft) 100,00 %
27.10.2018 21:28 6,7 C 5,6 C 6,1 C 92 % 1009,3 hPa 0,0 l/m 0 min 2 min 0 W/m 0,0 km/h (0 Bft) 97,87 %
27.10.2018 21:30 6,7 C 5,6 C 6,1 C 92 % 1009,4 hPa 0,2 l/m 0 min 2 min 0 W/m 0,0 km/h (0 Bft) 95,74 %
27.10.2018 21:32 6,7 C 5,6 C 5,6 C 92 % 1009,3 hPa 0,0 l/m 0 min 2 min 0 W/m 0,0 km/h (0 Bft) 95,74 %
27.10.2018 21:34 6,7 C 5,6 C 5,6 C 92 % 1009,3 hPa 0,0 l/m 0 min 2 min 0 W/m 0,0 km/h (0 Bft) 97,83 %
27.10.2018 21:38 6,7 C 5,6 C 5,6 C 93 % 1009,3 hPa 0,0 l/m 0 min 4 min 0 W/m 0,0 km/h (0 Bft) 97,87 %
27.10.2018 21:40 6,7 C 5,6 C 5,6 C 93 % 1009,3 hPa 0,0 l/m 0 min 2 min 0 W/m 0,0 km/h (0 Bft) 97,87 %
27.10.2018 21:42 6,6 C 5,6 C 5,6 C 93 % 1009,3 hPa 0,0 l/m 0 min 2 min 0 W/m 0,0 km/h (0 Bft) 93,62 %
27.10.2018 21:44 6,7 C 5,6 C 5,6 C 93 % 1009,3 hPa 0,0 l/m 0 min 0 min 0 W/m 0,0 km/h (0 Bft) 97,87 %
27.10.2018 21:46 6,6 C 5,6 C 5,6 C 93 % 1009,3 hPa 0,0 l/m 0 min 0 min 0 W/m 0,0 km/h (0 Bft) 95,65 %
27.10.2018 21:48 6,6 C 5,6 C 5,6 C 93 % 1009,3 hPa 0,0 l/m 0 min 0 min 0 W/m 0,0 km/h (0 Bft) 97,87 %
27.10.2018 21:50 6,6 C 5,6 C 5,6 C 93 % 1009,3 hPa 0,0 l/m 0 min 0 min 0 W/m 0,0 km/h (0 Bft) 97,87 %
27.10.2018 21:52 6,6 C 5,6 C 5,6 C 93 % 1009,4 hPa 0,0 l/m 0 min 2 min 0 W/m 0,0 km/h (0 Bft) 91,49 %
27.10.2018 21:54 6,6 C 5,6 C 5,6 C 93 % 1009,3 hPa 0,0 l/m 0 min 0 min 0 W/m 0,0 km/h (0 Bft) 97,87 %
27.10.2018 21:56 6,6 C 5,6 C 5,6 C 93 % 1009,4 hPa 0,0 l/m 0 min 0 min 0 W/m 0,0 km/h (0 Bft) 97,87 %
27.10.2018 21:58 6,6 C 5,6 C 5,6 C 93 % 1009,3 hPa 0,0 l/m 0 min 0 min 0 W/m 0,0 km/h (0 Bft) 97,83 %
27.10.2018 22:00 6,6 C 5,6 C 5,6 C 93 % 1009,3 hPa 0,0 l/m 0 min 0 min 0 W/m 0,0 km/h (0 Bft) 97,87 %
27.10.2018 22:02 6,6 C 5,6 C 5,6 C 93 % 1009,4 hPa 0,0 l/m 0 min 0 min 0 W/m 0,0 km/h (0 Bft) 95,74 %
27.10.2018 22:04 6,6 C 5,6 C 5,6 C 93 % 1009,4 hPa 0,0 l/m 0 min 0 min 0 W/m 0,0 km/h (0 Bft) 97,87 %
27.10.2018 22:08 6,6 C 5,6 C 5,6 C 93 % 1009,3 hPa 0,0 l/m 0 min 0 min 0 W/m 0,0 km/h (0 Bft) 98,92 %
27.10.2018 22:10 6,6 C 5,6 C 5,6 C 93 % 1009,4 hPa 0,0 l/m 0 min 0 min 0 W/m 0,0 km/h (0 Bft) 97,87 %
27.10.2018 22:12 6,6 C 5,6 C 5,6 C 93 % 1009,4 hPa 0,0 l/m 0 min 0 min 0 W/m 0,0 km/h (0 Bft) 97,87 %
27.10.2018 22:14 6,6 C 5,6 C 5,6 C 93 % 1009,4 hPa 0,0 l/m 0 min 0 min 0 W/m 0,0 km/h (0 Bft) 100,00 %
27.10.2018 22:16 6,6 C 5,6 C 5,6 C 93 % 1009,3 hPa 0,0 l/m 0 min 0 min 0 W/m 0,0 km/h (0 Bft) 100,00 %
27.10.2018 22:18 6,6 C 5,6 C 5,6 C 93 % 1009,3 hPa 0,0 l/m 0 min 0 min 0 W/m 0,0 km/h (0 Bft) 100,00 %
27.10.2018 22:20 6,6 C 5,6 C 5,6 C 93 % 1009,3 hPa 0,0 l/m 0 min 0 min 0 W/m 0,0 km/h (0 Bft) 100,00 %
27.10.2018 22:22 6,6 C 5,6 C 5,6 C 93 % 1009,3 hPa 0,0 l/m 0 min 0 min 0 W/m 0,0 km/h (0 Bft) 100,00 %
27.10.2018 22:24 6,6 C 5,6 C 5,6 C 93 % 1009,3 hPa 0,0 l/m 0 min 0 min 0 W/m 0,0 km/h (0 Bft) 100,00 %
27.10.2018 22:26 6,6 C 5,6 C 5,6 C 93 % 1009,3 hPa 0,0 l/m 0 min 0 min 0 W/m 0,0 km/h (0 Bft) 100,00 %
27.10.2018 22:28 6,6 C 5,6 C 5,6 C 93 % 1009,3 hPa 0,0 l/m 0 min 0 min 0 W/m 0,0 km/h (0 Bft) 97,87 %
27.10.2018 22:30 6,6 C 5,6 C 5,6 C 93 % 1009,2 hPa 0,0 l/m 0 min 0 min 0 W/m 0,0 km/h (0 Bft) 97,37 %
27.10.2018 22:32 6,6 C 5,6 C 5,6 C 93 % 1009,3 hPa 0,0 l/m 0 min 0 min 0 W/m 0,0 km/h (0 Bft) 97,87 %
27.10.2018 22:34 6,5 C 5,6 C 5,6 C 93 % 1009,2 hPa 0,0 l/m 0 min 0 min 0 W/m 0,0 km/h (0 Bft) 97,87 %
27.10.2018 22:38 6,5 C 5,6 C 5,6 C 93 % 1009,3 hPa 0,0 l/m 0 min 0 min 0 W/m 0,0 km/h (0 Bft) 97,85 %
27.10.2018 22:40 6,5 C 5,6 C 5,6 C 94 % 1009,3 hPa 0,0 l/m 0 min 0 min 0 W/m 0,0 km/h (0 Bft) 97,87 %
27.10.2018 22:42 6,5 C 5,6 C 5,6 C 94 % 1009,2 hPa 0,0 l/m 0 min 0 min 0 W/m 0,0 km/h (0 Bft) 97,87 %
27.10.2018 22:44 6,5 C 5,6 C 5,6 C 94 % 1009,2 hPa 0,0 l/m 0 min 0 min 0 W/m 0,0 km/h (0 Bft) 95,74 %
27.10.2018 22:46 6,4 C 5,6 C 5,6 C 94 % 1009,2 hPa 0,0 l/m 0 min 0 min 0 W/m 0,0 km/h (0 Bft) 95,65 %
27.10.2018 22:48 6,4 C 5,6 C 5,6 C 94 % 1009,3 hPa 0,0 l/m 0 min 0 min 0 W/m 0,0 km/h (0 Bft) 97,87 %
27.10.2018 22:50 6,4 C 5,6 C 5,6 C 94 % 1009,4 hPa 0,0 l/m 0 min 0 min 0 W/m 0,0 km/h (0 Bft) 96,00 %
27.10.2018 22:52 6,4 C 5,6 C 5,6 C 94 % 1009,3 hPa 0,0 l/m 0 min 0 min 0 W/m 0,0 km/h (0 Bft) 97,87 %
27.10.2018 22:54 6,4 C 5,6 C 5,6 C 94 % 1009,3 hPa 0,0 l/m 0 min 0 min 0 W/m 0,0 km/h (0 Bft) 97,87 %
27.10.2018 22:56 6,4 C 5,6 C 5,6 C 93 % 1009,4 hPa 0,0 l/m 0 min 0 min 0 W/m 0,0 km/h (0 Bft) 97,83 %
27.10.2018 22:58 6,4 C 5,6 C 5,6 C 93 % 1009,4 hPa 0,0 l/m 0 min 0 min 0 W/m 0,0 km/h (0 Bft) 97,87 %
27.10.2018 23:00 6,4 C 5,6 C 5,6 C 93 % 1009,4 hPa 0,0 l/m 0 min 0 min 0 W/m 0,0 km/h (0 Bft) 97,87 %
27.10.2018 23:02 6,4 C 5,0 C 5,6 C 93 % 1009,5 hPa 0,0 l/m 0 min 0 min 0 W/m 0,0 km/h (0 Bft) 95,92 %
27.10.2018 23:04 6,4 C 5,6 C 5,6 C 93 % 1009,5 hPa 0,0 l/m 0 min 0 min 0 W/m 0,0 km/h (0 Bft) 97,87 %
27.10.2018 23:08 6,3 C 5,6 C 5,6 C 94 % 1009,5 hPa 0,0 l/m 0 min 0 min 0 W/m 0,0 km/h (0 Bft) 96,63 %
27.10.2018 23:10 6,3 C 5,6 C 5,6 C 94 % 1009,5 hPa 0,0 l/m 0 min 0 min 0 W/m 0,0 km/h (0 Bft) 97,96 %
27.10.2018 23:12 6,3 C 5,6 C 5,6 C 94 % 1009,6 hPa 0,0 l/m 0 min 0 min 0 W/m 0,0 km/h (0 Bft) 97,96 %
27.10.2018 23:14 6,3 C 5,6 C 5,6 C 94 % 1009,7 hPa 0,0 l/m 0 min 0 min 0 W/m 3,2 km/h (1 Bft) 97,87 %
27.10.2018 23:16 6,3 C 5,6 C 5,6 C 94 % 1009,7 hPa 0,0 l/m 0 min 0 min 0 W/m 0,0 km/h (0 Bft) 97,87 %
27.10.2018 23:18 6,3 C 5,6 C 5,6 C 94 % 1009,7 hPa 0,0 l/m 0 min 0 min 0 W/m 0,0 km/h (0 Bft) 97,62 %
27.10.2018 23:20 6,3 C 5,6 C 5,6 C 94 % 1009,7 hPa 0,0 l/m 0 min 0 min 0 W/m 0,0 km/h (0 Bft) 98,04 %
27.10.2018 23:22 6,3 C 5,0 C 5,6 C 94 % 1009,8 hPa 0,0 l/m 0 min 0 min 0 W/m 0,0 km/h (0 Bft) 100,00 %
27.10.2018 23:24 6,3 C 5,0 C 5,0 C 94 % 1009,9 hPa 0,0 l/m 0 min 0 min 0 W/m 3,2 km/h (1 Bft) 100,00 %
27.10.2018 23:26 6,3 C 5,0 C 5,0 C 94 % 1009,9 hPa 0,0 l/m 0 min 0 min 0 W/m 0,0 km/h (0 Bft) 100,00 %
27.10.2018 23:28 6,3 C 5,0 C 5,0 C 94 % 1009,9 hPa 0,0 l/m 0 min 0 min 0 W/m 0,0 km/h (0 Bft) 97,96 %
27.10.2018 23:30 6,3 C 5,0 C 5,0 C 94 % 1009,9 hPa 0,0 l/m 0 min 0 min 0 W/m 0,0 km/h (0 Bft) 100,00 %
27.10.2018 23:32 6,2 C 5,0 C 5,0 C 94 % 1009,9 hPa 0,0 l/m 0 min 0 min 0 W/m 0,0 km/h (0 Bft) 100,00 %
27.10.2018 23:34 6,2 C 5,0 C 4,4 C 94 % 1009,9 hPa 0,0 l/m 0 min 0 min 0 W/m 0,0 km/h (0 Bft) 100,00 %
27.10.2018 23:38 6,2 C 4,4 C 4,4 C 94 % 1009,9 hPa 0,0 l/m 0 min 0 min 0 W/m 0,0 km/h (0 Bft) 97,56 %
27.10.2018 23:40 6,2 C 4,4 C 4,4 C 94 % 1009,8 hPa 0,0 l/m 0 min 0 min 0 W/m 0,0 km/h (0 Bft) 100,00 %
27.10.2018 23:42 6,2 C 4,4 C 4,4 C 94 % 1009,9 hPa 0,0 l/m 0 min 0 min 0 W/m 0,0 km/h (0 Bft) 98,15 %
27.10.2018 23:44 6,1 C 4,4 C 4,4 C 94 % 1009,8 hPa 0,0 l/m 0 min 0 min 0 W/m 0,0 km/h (0 Bft) 95,92 %
27.10.2018 23:46 6,1 C 4,4 C 4,4 C 94 % 1009,8 hPa 0,0 l/m 0 min 0 min 0 W/m 0,0 km/h (0 Bft) 100,00 %
27.10.2018 23:48 6,1 C 4,4 C 4,4 C 94 % 1009,9 hPa 0,0 l/m 0 min 0 min 0 W/m 0,0 km/h (0 Bft) 100,00 %
27.10.2018 23:50 6,1 C 4,4 C 4,4 C 94 % 1009,9 hPa 0,0 l/m 0 min 0 min 0 W/m 0,0 km/h (0 Bft) 97,87 %
27.10.2018 23:52 6,0 C 4,4 C 4,4 C 94 % 1010,0 hPa 0,0 l/m 0 min 0 min 0 W/m 3,2 km/h (1 Bft) 95,83 %
27.10.2018 23:54 6,0 C 4,4 C 4,4 C 94 % 1010,0 hPa 0,0 l/m 0 min 0 min 0 W/m 0,0 km/h (0 Bft) 97,87 %
27.10.2018 23:56 5,9 C 4,4 C 4,4 C 94 % 1010,0 hPa 0,0 l/m 0 min 0 min 0 W/m 0,0 km/h (0 Bft) 97,87 %
27.10.2018 23:58 5,9 C 4,4 C 4,4 C 94 % 1010,0 hPa 0,0 l/m 0 min 0 min 0 W/m 0,0 km/h (0 Bft) 97,14 %
_ Min-Zeit 08:30 08:30 07:22 15:46 00:32 - - - - 01:00 12:50
Minimum _ 4,2 C 3,3 C 3,9 C 78 % 1004,0 hPa - - - - 0,0 km/h (0 Bft) 79,66 %
_ Max-Zeit 15:38 11:46 15:12 10:12 23:52 05:40 12:38 05:19 12:48 05:12 01:16
Maximum _ 10,4 C 15,0 C 9,4 C 96 % 1010,0 hPa 0,2 l/m 4 min 5 min 496 W/m 19,3 km/h
NW (3 Bft)
100,00 %
Durchschnitt _ 6,8 C 6,5 C 6,0 C 90 % 1006,3 hPa #1,0 l/m #2:04 h #1:42 h 126 W/m 5,3 km/h (1 Bft) 97,37 %
© 2018 W. Hausmann